<?xml version="1.0" encoding="UTF-8" standalone="no" ?>
<gpx xmlns="http://www.topografix.com/GPX/1/1" xmlns:xsi="http://www.w3.org/2001/XMLSchema-instance" xsi:schemaLocation="http://www.topografix.com/GPX/1/1 http://www.topografix.com/GPX/1/1/gpx.xsd" version="1.1" creator="VisuGPX - https://www.visugpx.com">
  <metadata>
    <name>Tour du pays grassois</name>
    <desc><![CDATA[Joli tour. peut être amélioré pour éviter les routes.]]></desc>
  </metadata>
  <wpt lat="43.75477" lon="6.83241">
    <ele>1455.1</ele>
    <name><![CDATA[001]]></name>
    <desc><![CDATA[09-AOU-11 9:52:54]]></desc>
    <cmt><![CDATA[09-AOU-11 9:52:54]]></cmt>
  </wpt>
  <wpt lat="44.05251" lon="7.19465">
    <ele>1534.9</ele>
    <name><![CDATA[124]]></name>
    <desc><![CDATA[Sentier]]></desc>
    <cmt><![CDATA[Sentier]]></cmt>
  </wpt>
  <wpt lat="43.65632" lon="6.83236">
    <ele>594.1</ele>
    <name><![CDATA[Bois]]></name>
  </wpt>
  <wpt lat="43.65776" lon="6.83294">
    <ele>598</ele>
    <name><![CDATA[Point D'Eau]]></name>
  </wpt>
  <trk>
    <name><![CDATA[ACTIVE LOG 001]]></name>
    <trkseg>
      <trkpt lat="43.65388" lon="6.91979">
        <ele>296.2235107</ele>
        <time>2014-04-07T05:12:00Z</time>
      </trkpt>
      <trkpt lat="43.65434" lon="6.91998">
        <ele>293.8200684</ele>
        <time>2014-04-07T05:12:40Z</time>
      </trkpt>
      <trkpt lat="43.65475" lon="6.92045">
        <ele>294.3007813</ele>
        <time>2014-04-07T05:12:52Z</time>
      </trkpt>
      <trkpt lat="43.65523" lon="6.92056">
        <ele>298.1461182</ele>
        <time>2014-04-07T05:13:07Z</time>
      </trkpt>
      <trkpt lat="43.65566" lon="6.92081">
        <ele>297.6654053</ele>
        <time>2014-04-07T05:13:23Z</time>
      </trkpt>
      <trkpt lat="43.65596" lon="6.92064">
        <ele>303.4332275</ele>
        <time>2014-04-07T05:13:48Z</time>
      </trkpt>
      <trkpt lat="43.65631" lon="6.92107">
        <ele>305.8366699</ele>
        <time>2014-04-07T05:14:07Z</time>
      </trkpt>
      <trkpt lat="43.65671" lon="6.92112">
        <ele>313.5272217</ele>
        <time>2014-04-07T05:15:48Z</time>
      </trkpt>
      <trkpt lat="43.65712" lon="6.92144">
        <ele>315.4498291</ele>
        <time>2014-04-07T05:16:04Z</time>
      </trkpt>
      <trkpt lat="43.65742" lon="6.92196">
        <ele>318.8143311</ele>
        <time>2014-04-07T05:16:22Z</time>
      </trkpt>
      <trkpt lat="43.65771" lon="6.92174">
        <ele>322.1789551</ele>
        <time>2014-04-07T05:16:40Z</time>
      </trkpt>
      <trkpt lat="43.65746" lon="6.92123">
        <ele>324.5822754</ele>
        <time>2014-04-07T05:16:57Z</time>
      </trkpt>
      <trkpt lat="43.65726" lon="6.92071">
        <ele>326.0241699</ele>
        <time>2014-04-07T05:17:14Z</time>
      </trkpt>
      <trkpt lat="43.65696" lon="6.92019">
        <ele>326.9855957</ele>
        <time>2014-04-07T05:17:28Z</time>
      </trkpt>
      <trkpt lat="43.65668" lon="6.91965">
        <ele>330.3502197</ele>
        <time>2014-04-07T05:17:45Z</time>
      </trkpt>
      <trkpt lat="43.65641" lon="6.91915">
        <ele>333.7147217</ele>
        <time>2014-04-07T05:18:04Z</time>
      </trkpt>
      <trkpt lat="43.65614" lon="6.91864">
        <ele>337.5600586</ele>
        <time>2014-04-07T05:18:24Z</time>
      </trkpt>
      <trkpt lat="43.65585" lon="6.91812">
        <ele>340.9246826</ele>
        <time>2014-04-07T05:18:43Z</time>
      </trkpt>
      <trkpt lat="43.65558" lon="6.91759">
        <ele>344.7700195</ele>
        <time>2014-04-07T05:19:03Z</time>
      </trkpt>
      <trkpt lat="43.65526" lon="6.9171">
        <ele>350.5378418</ele>
        <time>2014-04-07T05:19:24Z</time>
      </trkpt>
      <trkpt lat="43.655" lon="6.91656">
        <ele>354.8637695</ele>
        <time>2014-04-07T05:19:44Z</time>
      </trkpt>
      <trkpt lat="43.65519" lon="6.91606">
        <ele>356.3057861</ele>
        <time>2014-04-07T05:19:59Z</time>
      </trkpt>
      <trkpt lat="43.65562" lon="6.9158">
        <ele>358.7089844</ele>
        <time>2014-04-07T05:20:14Z</time>
      </trkpt>
      <trkpt lat="43.65596" lon="6.91538">
        <ele>360.6317139</ele>
        <time>2014-04-07T05:20:29Z</time>
      </trkpt>
      <trkpt lat="43.65633" lon="6.91495">
        <ele>362.0737305</ele>
        <time>2014-04-07T05:20:44Z</time>
      </trkpt>
      <trkpt lat="43.65669" lon="6.91454">
        <ele>363.5157471</ele>
        <time>2014-04-07T05:20:59Z</time>
      </trkpt>
      <trkpt lat="43.65692" lon="6.91401">
        <ele>365.4383545</ele>
        <time>2014-04-07T05:21:13Z</time>
      </trkpt>
      <trkpt lat="43.65717" lon="6.91346">
        <ele>366.880249</ele>
        <time>2014-04-07T05:21:27Z</time>
      </trkpt>
      <trkpt lat="43.6575" lon="6.913">
        <ele>368.3222656</ele>
        <time>2014-04-07T05:21:41Z</time>
      </trkpt>
      <trkpt lat="43.65792" lon="6.91268">
        <ele>369.2836914</ele>
        <time>2014-04-07T05:21:54Z</time>
      </trkpt>
      <trkpt lat="43.65829" lon="6.91223">
        <ele>371.2062988</ele>
        <time>2014-04-07T05:22:08Z</time>
      </trkpt>
      <trkpt lat="43.65862" lon="6.9118">
        <ele>372.6481934</ele>
        <time>2014-04-07T05:22:21Z</time>
      </trkpt>
      <trkpt lat="43.65902" lon="6.91144">
        <ele>373.6094971</ele>
        <time>2014-04-07T05:22:34Z</time>
      </trkpt>
      <trkpt lat="43.65936" lon="6.91103">
        <ele>375.0515137</ele>
        <time>2014-04-07T05:22:47Z</time>
      </trkpt>
      <trkpt lat="43.65978" lon="6.91069">
        <ele>376.9742432</ele>
        <time>2014-04-07T05:23:00Z</time>
      </trkpt>
      <trkpt lat="43.66024" lon="6.9106">
        <ele>378.8968506</ele>
        <time>2014-04-07T05:23:13Z</time>
      </trkpt>
      <trkpt lat="43.66072" lon="6.91056">
        <ele>379.8580322</ele>
        <time>2014-04-07T05:23:26Z</time>
      </trkpt>
      <trkpt lat="43.66119" lon="6.91075">
        <ele>380.3387451</ele>
        <time>2014-04-07T05:23:39Z</time>
      </trkpt>
      <trkpt lat="43.66166" lon="6.91082">
        <ele>380.3387451</ele>
        <time>2014-04-07T05:23:51Z</time>
      </trkpt>
      <trkpt lat="43.66213" lon="6.91063">
        <ele>381.3000488</ele>
        <time>2014-04-07T05:24:03Z</time>
      </trkpt>
      <trkpt lat="43.66247" lon="6.91019">
        <ele>380.819458</ele>
        <time>2014-04-07T05:24:14Z</time>
      </trkpt>
      <trkpt lat="43.66281" lon="6.9097">
        <ele>381.7806396</ele>
        <time>2014-04-07T05:24:25Z</time>
      </trkpt>
      <trkpt lat="43.66321" lon="6.90937">
        <ele>383.2226563</ele>
        <time>2014-04-07T05:24:36Z</time>
      </trkpt>
      <trkpt lat="43.66349" lon="6.90889">
        <ele>383.7032471</ele>
        <time>2014-04-07T05:24:47Z</time>
      </trkpt>
      <trkpt lat="43.66373" lon="6.90836">
        <ele>383.7032471</ele>
        <time>2014-04-07T05:24:58Z</time>
      </trkpt>
      <trkpt lat="43.6637" lon="6.90774">
        <ele>386.1066895</ele>
        <time>2014-04-07T05:25:11Z</time>
      </trkpt>
      <trkpt lat="43.66352" lon="6.90715">
        <ele>389.4711914</ele>
        <time>2014-04-07T05:25:26Z</time>
      </trkpt>
      <trkpt lat="43.66353" lon="6.90655">
        <ele>392.8359375</ele>
        <time>2014-04-07T05:25:43Z</time>
      </trkpt>
      <trkpt lat="43.66391" lon="6.90611">
        <ele>396.2005615</ele>
        <time>2014-04-07T05:26:01Z</time>
      </trkpt>
      <trkpt lat="43.66412" lon="6.90562">
        <ele>399.5650635</ele>
        <time>2014-04-07T05:26:19Z</time>
      </trkpt>
      <trkpt lat="43.66398" lon="6.90503">
        <ele>402.4490967</ele>
        <time>2014-04-07T05:26:36Z</time>
      </trkpt>
      <trkpt lat="43.66394" lon="6.9044">
        <ele>404.3717041</ele>
        <time>2014-04-07T05:26:52Z</time>
      </trkpt>
      <trkpt lat="43.6643" lon="6.904">
        <ele>406.2943115</ele>
        <time>2014-04-07T05:27:06Z</time>
      </trkpt>
      <trkpt lat="43.66471" lon="6.90367">
        <ele>407.7363281</ele>
        <time>2014-04-07T05:27:21Z</time>
      </trkpt>
      <trkpt lat="43.66513" lon="6.90333">
        <ele>410.6202393</ele>
        <time>2014-04-07T05:27:37Z</time>
      </trkpt>
      <trkpt lat="43.66551" lon="6.90295">
        <ele>413.5042725</ele>
        <time>2014-04-07T05:27:53Z</time>
      </trkpt>
      <trkpt lat="43.66582" lon="6.90252">
        <ele>415.9074707</ele>
        <time>2014-04-07T05:28:08Z</time>
      </trkpt>
      <trkpt lat="43.66614" lon="6.90205">
        <ele>419.2722168</ele>
        <time>2014-04-07T05:28:25Z</time>
      </trkpt>
      <trkpt lat="43.66646" lon="6.90163">
        <ele>422.1560059</ele>
        <time>2014-04-07T05:28:42Z</time>
      </trkpt>
      <trkpt lat="43.66643" lon="6.90104">
        <ele>425.0401611</ele>
        <time>2014-04-07T05:28:58Z</time>
      </trkpt>
      <trkpt lat="43.6661" lon="6.90069">
        <ele>426.4820557</ele>
        <time>2014-04-07T05:29:13Z</time>
      </trkpt>
      <trkpt lat="43.66577" lon="6.90023">
        <ele>428.885376</ele>
        <time>2014-04-07T05:29:29Z</time>
      </trkpt>
      <trkpt lat="43.66577" lon="6.89961">
        <ele>431.769165</ele>
        <time>2014-04-07T05:29:45Z</time>
      </trkpt>
      <trkpt lat="43.66567" lon="6.899">
        <ele>434.6533203</ele>
        <time>2014-04-07T05:30:02Z</time>
      </trkpt>
      <trkpt lat="43.66548" lon="6.89841">
        <ele>437.5371094</ele>
        <time>2014-04-07T05:30:19Z</time>
      </trkpt>
      <trkpt lat="43.66549" lon="6.89776">
        <ele>440.4212646</ele>
        <time>2014-04-07T05:30:36Z</time>
      </trkpt>
      <trkpt lat="43.66551" lon="6.89711">
        <ele>443.3050537</ele>
        <time>2014-04-07T05:30:53Z</time>
      </trkpt>
      <trkpt lat="43.66554" lon="6.89649">
        <ele>446.1890869</ele>
        <time>2014-04-07T05:31:10Z</time>
      </trkpt>
      <trkpt lat="43.66546" lon="6.89585">
        <ele>449.072998</ele>
        <time>2014-04-07T05:31:27Z</time>
      </trkpt>
      <trkpt lat="43.66536" lon="6.8952">
        <ele>451.9570313</ele>
        <time>2014-04-07T05:31:44Z</time>
      </trkpt>
      <trkpt lat="43.66529" lon="6.89455">
        <ele>454.8408203</ele>
        <time>2014-04-07T05:32:01Z</time>
      </trkpt>
      <trkpt lat="43.66523" lon="6.89394">
        <ele>455.3215332</ele>
        <time>2014-04-07T05:32:16Z</time>
      </trkpt>
      <trkpt lat="43.66517" lon="6.89333">
        <ele>457.7249756</ele>
        <time>2014-04-07T05:32:30Z</time>
      </trkpt>
      <trkpt lat="43.6651" lon="6.89267">
        <ele>459.1668701</ele>
        <time>2014-04-07T05:32:45Z</time>
      </trkpt>
      <trkpt lat="43.66514" lon="6.89203">
        <ele>462.5313721</ele>
        <time>2014-04-07T05:33:00Z</time>
      </trkpt>
      <trkpt lat="43.66527" lon="6.89138">
        <ele>465.4155273</ele>
        <time>2014-04-07T05:33:17Z</time>
      </trkpt>
      <trkpt lat="43.66545" lon="6.89081">
        <ele>468.2993164</ele>
        <time>2014-04-07T05:33:34Z</time>
      </trkpt>
      <trkpt lat="43.66566" lon="6.89025">
        <ele>470.7026367</ele>
        <time>2014-04-07T05:33:51Z</time>
      </trkpt>
      <trkpt lat="43.66588" lon="6.88972">
        <ele>473.1060791</ele>
        <time>2014-04-07T05:34:08Z</time>
      </trkpt>
      <trkpt lat="43.66605" lon="6.88911">
        <ele>475.9898682</ele>
        <time>2014-04-07T05:34:25Z</time>
      </trkpt>
      <trkpt lat="43.66634" lon="6.88861">
        <ele>476.9512939</ele>
        <time>2014-04-07T05:34:41Z</time>
      </trkpt>
      <trkpt lat="43.66664" lon="6.88809">
        <ele>481.2772217</ele>
        <time>2014-04-07T05:34:59Z</time>
      </trkpt>
      <trkpt lat="43.66663" lon="6.88748">
        <ele>483.6804199</ele>
        <time>2014-04-07T05:35:15Z</time>
      </trkpt>
      <trkpt lat="43.66627" lon="6.88719">
        <ele>486.0837402</ele>
        <time>2014-04-07T05:35:31Z</time>
      </trkpt>
      <trkpt lat="43.6658" lon="6.88706">
        <ele>488.4871826</ele>
        <time>2014-04-07T05:35:47Z</time>
      </trkpt>
      <trkpt lat="43.66539" lon="6.88676">
        <ele>491.8516846</ele>
        <time>2014-04-07T05:36:03Z</time>
      </trkpt>
      <trkpt lat="43.66503" lon="6.88636">
        <ele>495.2161865</ele>
        <time>2014-04-07T05:36:20Z</time>
      </trkpt>
      <trkpt lat="43.66467" lon="6.88591">
        <ele>498.1003418</ele>
        <time>2014-04-07T05:36:38Z</time>
      </trkpt>
      <trkpt lat="43.6643" lon="6.88551">
        <ele>501.4648438</ele>
        <time>2014-04-07T05:36:56Z</time>
      </trkpt>
      <trkpt lat="43.66391" lon="6.88513">
        <ele>503.8681641</ele>
        <time>2014-04-07T05:37:13Z</time>
      </trkpt>
      <trkpt lat="43.66351" lon="6.88477">
        <ele>506.7520752</ele>
        <time>2014-04-07T05:37:30Z</time>
      </trkpt>
      <trkpt lat="43.66312" lon="6.88444">
        <ele>510.1166992</ele>
        <time>2014-04-07T05:37:47Z</time>
      </trkpt>
      <trkpt lat="43.66274" lon="6.88408">
        <ele>513.0007324</ele>
        <time>2014-04-07T05:38:04Z</time>
      </trkpt>
      <trkpt lat="43.66236" lon="6.88372">
        <ele>516.3652344</ele>
        <time>2014-04-07T05:38:22Z</time>
      </trkpt>
      <trkpt lat="43.66197" lon="6.88334">
        <ele>519.2492676</ele>
        <time>2014-04-07T05:38:41Z</time>
      </trkpt>
      <trkpt lat="43.66173" lon="6.88282">
        <ele>522.6138916</ele>
        <time>2014-04-07T05:38:59Z</time>
      </trkpt>
      <trkpt lat="43.66175" lon="6.88217">
        <ele>525.9783936</ele>
        <time>2014-04-07T05:39:18Z</time>
      </trkpt>
      <trkpt lat="43.66153" lon="6.88159">
        <ele>528.8625488</ele>
        <time>2014-04-07T05:39:37Z</time>
      </trkpt>
      <trkpt lat="43.6611" lon="6.88141">
        <ele>531.2657471</ele>
        <time>2014-04-07T05:39:54Z</time>
      </trkpt>
      <trkpt lat="43.66066" lon="6.8813">
        <ele>534.1496582</ele>
        <time>2014-04-07T05:40:11Z</time>
      </trkpt>
      <trkpt lat="43.66052" lon="6.88109">
        <ele>537.0336914</ele>
        <time>2014-04-07T05:40:33Z</time>
      </trkpt>
      <trkpt lat="43.66021" lon="6.88067">
        <ele>547.6081543</ele>
        <time>2014-04-07T05:41:48Z</time>
      </trkpt>
      <trkpt lat="43.66031" lon="6.88002">
        <ele>545.6855469</ele>
        <time>2014-04-07T05:41:59Z</time>
      </trkpt>
      <trkpt lat="43.66035" lon="6.87937">
        <ele>544.2436523</ele>
        <time>2014-04-07T05:42:09Z</time>
      </trkpt>
      <trkpt lat="43.66027" lon="6.87871">
        <ele>541.84021</ele>
        <time>2014-04-07T05:42:17Z</time>
      </trkpt>
      <trkpt lat="43.66027" lon="6.87804">
        <ele>539.9176025</ele>
        <time>2014-04-07T05:42:24Z</time>
      </trkpt>
      <trkpt lat="43.66028" lon="6.87732">
        <ele>540.3983154</ele>
        <time>2014-04-07T05:42:32Z</time>
      </trkpt>
      <trkpt lat="43.66007" lon="6.87673">
        <ele>539.9176025</ele>
        <time>2014-04-07T05:42:40Z</time>
      </trkpt>
      <trkpt lat="43.65958" lon="6.87677">
        <ele>537.5142822</ele>
        <time>2014-04-07T05:42:47Z</time>
      </trkpt>
      <trkpt lat="43.65912" lon="6.87707">
        <ele>536.5531006</ele>
        <time>2014-04-07T05:42:54Z</time>
      </trkpt>
      <trkpt lat="43.65871" lon="6.87747">
        <ele>536.0723877</ele>
        <time>2014-04-07T05:43:01Z</time>
      </trkpt>
      <trkpt lat="43.65825" lon="6.87767">
        <ele>536.0723877</ele>
        <time>2014-04-07T05:43:08Z</time>
      </trkpt>
      <trkpt lat="43.65775" lon="6.87773">
        <ele>536.5531006</ele>
        <time>2014-04-07T05:43:16Z</time>
      </trkpt>
      <trkpt lat="43.65734" lon="6.87744">
        <ele>536.5531006</ele>
        <time>2014-04-07T05:43:24Z</time>
      </trkpt>
      <trkpt lat="43.65697" lon="6.87701">
        <ele>536.0723877</ele>
        <time>2014-04-07T05:43:32Z</time>
      </trkpt>
      <trkpt lat="43.65663" lon="6.87654">
        <ele>537.5142822</ele>
        <time>2014-04-07T05:43:41Z</time>
      </trkpt>
      <trkpt lat="43.65651" lon="6.87594">
        <ele>538.475708</ele>
        <time>2014-04-07T05:43:51Z</time>
      </trkpt>
      <trkpt lat="43.65657" lon="6.87531">
        <ele>540.3983154</ele>
        <time>2014-04-07T05:44:02Z</time>
      </trkpt>
      <trkpt lat="43.65665" lon="6.87467">
        <ele>542.3209229</ele>
        <time>2014-04-07T05:44:14Z</time>
      </trkpt>
      <trkpt lat="43.65672" lon="6.87409">
        <ele>543.2821045</ele>
        <time>2014-04-07T05:44:26Z</time>
      </trkpt>
      <trkpt lat="43.65673" lon="6.87348">
        <ele>542.8015137</ele>
        <time>2014-04-07T05:44:35Z</time>
      </trkpt>
      <trkpt lat="43.65678" lon="6.87286">
        <ele>544.7242432</ele>
        <time>2014-04-07T05:44:45Z</time>
      </trkpt>
      <trkpt lat="43.65691" lon="6.87222">
        <ele>545.204834</ele>
        <time>2014-04-07T05:44:57Z</time>
      </trkpt>
      <trkpt lat="43.65721" lon="6.87174">
        <ele>543.2821045</ele>
        <time>2014-04-07T05:45:07Z</time>
      </trkpt>
      <trkpt lat="43.65734" lon="6.87114">
        <ele>543.7628174</ele>
        <time>2014-04-07T05:45:17Z</time>
      </trkpt>
      <trkpt lat="43.65737" lon="6.87051">
        <ele>543.7628174</ele>
        <time>2014-04-07T05:45:27Z</time>
      </trkpt>
      <trkpt lat="43.65741" lon="6.86986">
        <ele>543.7628174</ele>
        <time>2014-04-07T05:45:38Z</time>
      </trkpt>
      <trkpt lat="43.65746" lon="6.86924">
        <ele>542.8015137</ele>
        <time>2014-04-07T05:45:49Z</time>
      </trkpt>
      <trkpt lat="43.65751" lon="6.86859">
        <ele>543.7628174</ele>
        <time>2014-04-07T05:46:00Z</time>
      </trkpt>
      <trkpt lat="43.6575" lon="6.86795">
        <ele>546.6468506</ele>
        <time>2014-04-07T05:46:14Z</time>
      </trkpt>
      <trkpt lat="43.65718" lon="6.86741">
        <ele>542.3209229</ele>
        <time>2014-04-07T05:46:24Z</time>
      </trkpt>
      <trkpt lat="43.65699" lon="6.86679">
        <ele>537.0336914</ele>
        <time>2014-04-07T05:46:30Z</time>
      </trkpt>
      <trkpt lat="43.65673" lon="6.8662">
        <ele>537.0336914</ele>
        <time>2014-04-07T05:46:36Z</time>
      </trkpt>
      <trkpt lat="43.65654" lon="6.86558">
        <ele>545.6855469</ele>
        <time>2014-04-07T05:46:49Z</time>
      </trkpt>
      <trkpt lat="43.65658" lon="6.86495">
        <ele>553.3759766</ele>
        <time>2014-04-07T05:47:14Z</time>
      </trkpt>
      <trkpt lat="43.65665" lon="6.86421">
        <ele>559.144043</ele>
        <time>2014-04-07T05:47:40Z</time>
      </trkpt>
      <trkpt lat="43.65636" lon="6.8636">
        <ele>562.9892578</ele>
        <time>2014-04-07T05:48:03Z</time>
      </trkpt>
      <trkpt lat="43.65602" lon="6.863">
        <ele>565.3925781</ele>
        <time>2014-04-07T05:48:24Z</time>
      </trkpt>
      <trkpt lat="43.65601" lon="6.86239">
        <ele>567.3151855</ele>
        <time>2014-04-07T05:49:04Z</time>
      </trkpt>
      <trkpt lat="43.65627" lon="6.86182">
        <ele>571.1604004</ele>
        <time>2014-04-07T05:49:30Z</time>
      </trkpt>
      <trkpt lat="43.65634" lon="6.86111">
        <ele>577.8896484</ele>
        <time>2014-04-07T05:49:55Z</time>
      </trkpt>
      <trkpt lat="43.65629" lon="6.86036">
        <ele>585.5800781</ele>
        <time>2014-04-07T05:50:21Z</time>
      </trkpt>
      <trkpt lat="43.65613" lon="6.85972">
        <ele>590.3869629</ele>
        <time>2014-04-07T05:50:40Z</time>
      </trkpt>
      <trkpt lat="43.6559" lon="6.85914">
        <ele>595.1933594</ele>
        <time>2014-04-07T05:51:03Z</time>
      </trkpt>
      <trkpt lat="43.65568" lon="6.85858">
        <ele>600.9611816</ele>
        <time>2014-04-07T05:51:26Z</time>
      </trkpt>
      <trkpt lat="43.65543" lon="6.85801">
        <ele>601.9226074</ele>
        <time>2014-04-07T05:51:48Z</time>
      </trkpt>
      <trkpt lat="43.65521" lon="6.85742">
        <ele>604.3261719</ele>
        <time>2014-04-07T05:52:08Z</time>
      </trkpt>
      <trkpt lat="43.65484" lon="6.85698">
        <ele>602.8837891</ele>
        <time>2014-04-07T05:52:22Z</time>
      </trkpt>
      <trkpt lat="43.65452" lon="6.85646">
        <ele>602.4030762</ele>
        <time>2014-04-07T05:52:35Z</time>
      </trkpt>
      <trkpt lat="43.65423" lon="6.85595">
        <ele>602.4030762</ele>
        <time>2014-04-07T05:52:48Z</time>
      </trkpt>
      <trkpt lat="43.65393" lon="6.85548">
        <ele>602.4030762</ele>
        <time>2014-04-07T05:53:01Z</time>
      </trkpt>
      <trkpt lat="43.65363" lon="6.8549">
        <ele>603.364502</ele>
        <time>2014-04-07T05:53:16Z</time>
      </trkpt>
      <trkpt lat="43.65331" lon="6.85439">
        <ele>603.8452148</ele>
        <time>2014-04-07T05:53:31Z</time>
      </trkpt>
      <trkpt lat="43.65305" lon="6.85381">
        <ele>604.8066406</ele>
        <time>2014-04-07T05:53:45Z</time>
      </trkpt>
      <trkpt lat="43.65283" lon="6.85325">
        <ele>605.7680664</ele>
        <time>2014-04-07T05:54:00Z</time>
      </trkpt>
      <trkpt lat="43.65251" lon="6.85278">
        <ele>603.364502</ele>
        <time>2014-04-07T05:54:11Z</time>
      </trkpt>
      <trkpt lat="43.65227" lon="6.85221">
        <ele>602.4030762</ele>
        <time>2014-04-07T05:54:21Z</time>
      </trkpt>
      <trkpt lat="43.65205" lon="6.85167">
        <ele>600.4807129</ele>
        <time>2014-04-07T06:02:20Z</time>
      </trkpt>
      <trkpt lat="43.65172" lon="6.85121">
        <ele>598.5578613</ele>
        <time>2014-04-07T06:02:30Z</time>
      </trkpt>
      <trkpt lat="43.65139" lon="6.85076">
        <ele>598.5578613</ele>
        <time>2014-04-07T06:02:40Z</time>
      </trkpt>
      <trkpt lat="43.65111" lon="6.85027">
        <ele>599.0385742</ele>
        <time>2014-04-07T06:02:51Z</time>
      </trkpt>
      <trkpt lat="43.65082" lon="6.84978">
        <ele>599.0385742</ele>
        <time>2014-04-07T06:03:02Z</time>
      </trkpt>
      <trkpt lat="43.65053" lon="6.84924">
        <ele>599.0385742</ele>
        <time>2014-04-07T06:03:14Z</time>
      </trkpt>
      <trkpt lat="43.65026" lon="6.84871">
        <ele>599.0385742</ele>
        <time>2014-04-07T06:03:25Z</time>
      </trkpt>
      <trkpt lat="43.65001" lon="6.84818">
        <ele>598.5578613</ele>
        <time>2014-04-07T06:03:35Z</time>
      </trkpt>
      <trkpt lat="43.64977" lon="6.84762">
        <ele>599.5192871</ele>
        <time>2014-04-07T06:03:46Z</time>
      </trkpt>
      <trkpt lat="43.6495" lon="6.84706">
        <ele>598.0773926</ele>
        <time>2014-04-07T06:03:57Z</time>
      </trkpt>
      <trkpt lat="43.64935" lon="6.84645">
        <ele>597.5966797</ele>
        <time>2014-04-07T06:04:07Z</time>
      </trkpt>
      <trkpt lat="43.6492" lon="6.84581">
        <ele>597.5966797</ele>
        <time>2014-04-07T06:04:18Z</time>
      </trkpt>
      <trkpt lat="43.64895" lon="6.84527">
        <ele>594.2321777</ele>
        <time>2014-04-07T06:04:27Z</time>
      </trkpt>
      <trkpt lat="43.6488" lon="6.84466">
        <ele>592.3095703</ele>
        <time>2014-04-07T06:04:37Z</time>
      </trkpt>
      <trkpt lat="43.64878" lon="6.8445">
        <ele>600.4807129</ele>
        <time>2014-04-07T06:06:17Z</time>
      </trkpt>
      <trkpt lat="43.6491" lon="6.84405">
        <ele>596.635498</ele>
        <time>2014-04-07T06:06:40Z</time>
      </trkpt>
      <trkpt lat="43.64947" lon="6.84367">
        <ele>591.3481445</ele>
        <time>2014-04-07T06:06:47Z</time>
      </trkpt>
      <trkpt lat="43.64987" lon="6.84331">
        <ele>587.0219727</ele>
        <time>2014-04-07T06:06:53Z</time>
      </trkpt>
      <trkpt lat="43.65033" lon="6.8429">
        <ele>581.2543945</ele>
        <time>2014-04-07T06:06:59Z</time>
      </trkpt>
      <trkpt lat="43.65072" lon="6.8425">
        <ele>578.8510742</ele>
        <time>2014-04-07T06:07:04Z</time>
      </trkpt>
      <trkpt lat="43.6511" lon="6.8421">
        <ele>575.4863281</ele>
        <time>2014-04-07T06:07:09Z</time>
      </trkpt>
      <trkpt lat="43.65137" lon="6.84158">
        <ele>573.083252</ele>
        <time>2014-04-07T06:07:14Z</time>
      </trkpt>
      <trkpt lat="43.65149" lon="6.8409">
        <ele>572.6025391</ele>
        <time>2014-04-07T06:07:20Z</time>
      </trkpt>
      <trkpt lat="43.65158" lon="6.8402">
        <ele>572.1218262</ele>
        <time>2014-04-07T06:07:27Z</time>
      </trkpt>
      <trkpt lat="43.65165" lon="6.83952">
        <ele>572.1218262</ele>
        <time>2014-04-07T06:07:35Z</time>
      </trkpt>
      <trkpt lat="43.65158" lon="6.83886">
        <ele>570.1989746</ele>
        <time>2014-04-07T06:07:43Z</time>
      </trkpt>
      <trkpt lat="43.65135" lon="6.83832">
        <ele>570.1989746</ele>
        <time>2014-04-07T06:08:25Z</time>
      </trkpt>
      <trkpt lat="43.65108" lon="6.83779">
        <ele>570.6796875</ele>
        <time>2014-04-07T06:08:35Z</time>
      </trkpt>
      <trkpt lat="43.65104" lon="6.83718">
        <ele>572.6025391</ele>
        <time>2014-04-07T06:08:47Z</time>
      </trkpt>
      <trkpt lat="43.65137" lon="6.83668">
        <ele>571.6408691</ele>
        <time>2014-04-07T06:08:58Z</time>
      </trkpt>
      <trkpt lat="43.65182" lon="6.83634">
        <ele>573.5639648</ele>
        <time>2014-04-07T06:09:53Z</time>
      </trkpt>
      <trkpt lat="43.6523" lon="6.83621">
        <ele>576.9284668</ele>
        <time>2014-04-07T06:10:07Z</time>
      </trkpt>
      <trkpt lat="43.65275" lon="6.83604">
        <ele>579.8122559</ele>
        <time>2014-04-07T06:10:27Z</time>
      </trkpt>
      <trkpt lat="43.65322" lon="6.83598">
        <ele>583.1767578</ele>
        <time>2014-04-07T06:10:49Z</time>
      </trkpt>
      <trkpt lat="43.65375" lon="6.83603">
        <ele>584.1381836</ele>
        <time>2014-04-07T06:11:07Z</time>
      </trkpt>
      <trkpt lat="43.65421" lon="6.83571">
        <ele>586.060791</ele>
        <time>2014-04-07T06:11:29Z</time>
      </trkpt>
      <trkpt lat="43.65441" lon="6.83516">
        <ele>586.5415039</ele>
        <time>2014-04-07T06:13:55Z</time>
      </trkpt>
      <trkpt lat="43.65462" lon="6.83456">
        <ele>588.9450684</ele>
        <time>2014-04-07T06:14:12Z</time>
      </trkpt>
      <trkpt lat="43.65511" lon="6.83412">
        <ele>595.1933594</ele>
        <time>2014-04-07T06:14:36Z</time>
      </trkpt>
      <trkpt lat="43.65546" lon="6.83363">
        <ele>597.1159668</ele>
        <time>2014-04-07T06:15:04Z</time>
      </trkpt>
      <trkpt lat="43.65579" lon="6.83321">
        <ele>599.0385742</ele>
        <time>2014-04-07T06:15:23Z</time>
      </trkpt>
      <trkpt lat="43.6562" lon="6.83262">
        <ele>599.5192871</ele>
        <time>2014-04-07T06:15:58Z</time>
      </trkpt>
      <trkpt lat="43.65658" lon="6.83205">
        <ele>596.635498</ele>
        <time>2014-04-07T06:16:14Z</time>
      </trkpt>
      <trkpt lat="43.65699" lon="6.83169">
        <ele>596.635498</ele>
        <time>2014-04-07T06:16:30Z</time>
      </trkpt>
      <trkpt lat="43.65725" lon="6.83171">
        <ele>599.5192871</ele>
        <time>2014-04-07T06:16:48Z</time>
      </trkpt>
      <trkpt lat="43.65745" lon="6.83226">
        <ele>602.8837891</ele>
        <time>2014-04-07T06:17:12Z</time>
      </trkpt>
      <trkpt lat="43.65768" lon="6.83276">
        <ele>601.4418945</ele>
        <time>2014-04-07T06:17:28Z</time>
      </trkpt>
      <trkpt lat="43.65799" lon="6.83308">
        <ele>601.9226074</ele>
        <time>2014-04-07T06:20:28Z</time>
      </trkpt>
      <trkpt lat="43.65821" lon="6.83361">
        <ele>603.8452148</ele>
        <time>2014-04-07T06:20:44Z</time>
      </trkpt>
      <trkpt lat="43.65844" lon="6.83417">
        <ele>608.1713867</ele>
        <time>2014-04-07T06:21:04Z</time>
      </trkpt>
      <trkpt lat="43.65877" lon="6.83456">
        <ele>612.4970703</ele>
        <time>2014-04-07T06:21:26Z</time>
      </trkpt>
      <trkpt lat="43.65919" lon="6.83482">
        <ele>614.9003906</ele>
        <time>2014-04-07T06:21:46Z</time>
      </trkpt>
      <trkpt lat="43.65958" lon="6.83457">
        <ele>612.4970703</ele>
        <time>2014-04-07T06:22:04Z</time>
      </trkpt>
      <trkpt lat="43.66003" lon="6.83455">
        <ele>611.5358887</ele>
        <time>2014-04-07T06:22:59Z</time>
      </trkpt>
      <trkpt lat="43.66035" lon="6.83405">
        <ele>609.6132813</ele>
        <time>2014-04-07T06:23:12Z</time>
      </trkpt>
      <trkpt lat="43.66051" lon="6.83339">
        <ele>610.09375</ele>
        <time>2014-04-07T06:23:26Z</time>
      </trkpt>
      <trkpt lat="43.66074" lon="6.83286">
        <ele>611.0551758</ele>
        <time>2014-04-07T06:23:38Z</time>
      </trkpt>
      <trkpt lat="43.66097" lon="6.83233">
        <ele>613.9389648</ele>
        <time>2014-04-07T06:23:54Z</time>
      </trkpt>
      <trkpt lat="43.66111" lon="6.83173">
        <ele>618.2648926</ele>
        <time>2014-04-07T06:24:15Z</time>
      </trkpt>
      <trkpt lat="43.66125" lon="6.83111">
        <ele>623.0717773</ele>
        <time>2014-04-07T06:24:39Z</time>
      </trkpt>
      <trkpt lat="43.66136" lon="6.8305">
        <ele>627.8781738</ele>
        <time>2014-04-07T06:25:03Z</time>
      </trkpt>
      <trkpt lat="43.66148" lon="6.82988">
        <ele>632.6848145</ele>
        <time>2014-04-07T06:25:30Z</time>
      </trkpt>
      <trkpt lat="43.66175" lon="6.82909">
        <ele>637.0107422</ele>
        <time>2014-04-07T06:25:56Z</time>
      </trkpt>
      <trkpt lat="43.66207" lon="6.82838">
        <ele>640.855957</ele>
        <time>2014-04-07T06:26:20Z</time>
      </trkpt>
      <trkpt lat="43.66221" lon="6.82819">
        <ele>641.3366699</ele>
        <time>2014-04-07T06:27:16Z</time>
      </trkpt>
      <trkpt lat="43.6623" lon="6.82749">
        <ele>646.1433105</ele>
        <time>2014-04-07T06:27:44Z</time>
      </trkpt>
      <trkpt lat="43.66266" lon="6.82731">
        <ele>649.0270996</ele>
        <time>2014-04-07T06:28:07Z</time>
      </trkpt>
      <trkpt lat="43.66285" lon="6.82683">
        <ele>652.3918457</ele>
        <time>2014-04-07T06:28:26Z</time>
      </trkpt>
      <trkpt lat="43.66302" lon="6.82621">
        <ele>656.2370605</ele>
        <time>2014-04-07T06:28:46Z</time>
      </trkpt>
      <trkpt lat="43.66318" lon="6.82558">
        <ele>659.6018066</ele>
        <time>2014-04-07T06:29:06Z</time>
      </trkpt>
      <trkpt lat="43.66343" lon="6.82503">
        <ele>662.005127</ele>
        <time>2014-04-07T06:29:24Z</time>
      </trkpt>
      <trkpt lat="43.66358" lon="6.82441">
        <ele>664.888916</ele>
        <time>2014-04-07T06:29:41Z</time>
      </trkpt>
      <trkpt lat="43.66357" lon="6.82398">
        <ele>664.888916</ele>
        <time>2014-04-07T06:30:18Z</time>
      </trkpt>
      <trkpt lat="43.66341" lon="6.82343">
        <ele>663.9274902</ele>
        <time>2014-04-07T06:30:41Z</time>
      </trkpt>
      <trkpt lat="43.66359" lon="6.8228">
        <ele>662.005127</ele>
        <time>2014-04-07T06:30:53Z</time>
      </trkpt>
      <trkpt lat="43.66377" lon="6.82221">
        <ele>661.5244141</ele>
        <time>2014-04-07T06:31:05Z</time>
      </trkpt>
      <trkpt lat="43.66387" lon="6.82195">
        <ele>661.5244141</ele>
        <time>2014-04-07T06:31:52Z</time>
      </trkpt>
      <trkpt lat="43.66401" lon="6.8213">
        <ele>661.5244141</ele>
        <time>2014-04-07T06:32:09Z</time>
      </trkpt>
      <trkpt lat="43.66423" lon="6.82069">
        <ele>661.0437012</ele>
        <time>2014-04-07T06:32:23Z</time>
      </trkpt>
      <trkpt lat="43.66452" lon="6.82002">
        <ele>660.5629883</ele>
        <time>2014-04-07T06:32:36Z</time>
      </trkpt>
      <trkpt lat="43.66477" lon="6.81936">
        <ele>658.6403809</ele>
        <time>2014-04-07T06:32:49Z</time>
      </trkpt>
      <trkpt lat="43.66507" lon="6.81882">
        <ele>654.795166</ele>
        <time>2014-04-07T06:33:01Z</time>
      </trkpt>
      <trkpt lat="43.66533" lon="6.81814">
        <ele>651.9111328</ele>
        <time>2014-04-07T06:33:14Z</time>
      </trkpt>
      <trkpt lat="43.66529" lon="6.81754">
        <ele>648.5463867</ele>
        <time>2014-04-07T06:33:30Z</time>
      </trkpt>
      <trkpt lat="43.66528" lon="6.81694">
        <ele>644.2207031</ele>
        <time>2014-04-07T06:33:40Z</time>
      </trkpt>
      <trkpt lat="43.66521" lon="6.81631">
        <ele>637.972168</ele>
        <time>2014-04-07T06:33:52Z</time>
      </trkpt>
      <trkpt lat="43.66517" lon="6.81569">
        <ele>630.762207</ele>
        <time>2014-04-07T06:34:05Z</time>
      </trkpt>
      <trkpt lat="43.66526" lon="6.81509">
        <ele>627.8781738</ele>
        <time>2014-04-07T06:34:27Z</time>
      </trkpt>
      <trkpt lat="43.66504" lon="6.81458">
        <ele>624.032959</ele>
        <time>2014-04-07T06:34:40Z</time>
      </trkpt>
      <trkpt lat="43.66471" lon="6.81414">
        <ele>622.1103516</ele>
        <time>2014-04-07T06:34:49Z</time>
      </trkpt>
      <trkpt lat="43.66443" lon="6.81363">
        <ele>618.7456055</ele>
        <time>2014-04-07T06:35:09Z</time>
      </trkpt>
      <trkpt lat="43.66449" lon="6.81312">
        <ele>613.4584961</ele>
        <time>2014-04-07T06:35:45Z</time>
      </trkpt>
      <trkpt lat="43.66476" lon="6.81261">
        <ele>609.1325684</ele>
        <time>2014-04-07T06:35:59Z</time>
      </trkpt>
      <trkpt lat="43.66517" lon="6.81233">
        <ele>603.364502</ele>
        <time>2014-04-07T06:36:12Z</time>
      </trkpt>
      <trkpt lat="43.66559" lon="6.81213">
        <ele>596.1547852</ele>
        <time>2014-04-07T06:36:25Z</time>
      </trkpt>
      <trkpt lat="43.666" lon="6.81203">
        <ele>587.9833984</ele>
        <time>2014-04-07T06:36:37Z</time>
      </trkpt>
      <trkpt lat="43.66641" lon="6.81191">
        <ele>581.7348633</ele>
        <time>2014-04-07T06:36:50Z</time>
      </trkpt>
      <trkpt lat="43.66658" lon="6.81144">
        <ele>573.5639648</ele>
        <time>2014-04-07T06:37:05Z</time>
      </trkpt>
      <trkpt lat="43.6665" lon="6.8108">
        <ele>567.3151855</ele>
        <time>2014-04-07T06:37:15Z</time>
      </trkpt>
      <trkpt lat="43.6666" lon="6.81024">
        <ele>563.9504395</ele>
        <time>2014-04-07T06:37:26Z</time>
      </trkpt>
      <trkpt lat="43.66682" lon="6.80973">
        <ele>558.6633301</ele>
        <time>2014-04-07T06:37:41Z</time>
      </trkpt>
      <trkpt lat="43.66724" lon="6.80968">
        <ele>556.2600098</ele>
        <time>2014-04-07T06:38:15Z</time>
      </trkpt>
      <trkpt lat="43.66769" lon="6.80979">
        <ele>552.4145508</ele>
        <time>2014-04-07T06:38:29Z</time>
      </trkpt>
      <trkpt lat="43.66812" lon="6.80967">
        <ele>550.9726563</ele>
        <time>2014-04-07T06:38:38Z</time>
      </trkpt>
      <trkpt lat="43.66812" lon="6.80901">
        <ele>545.204834</ele>
        <time>2014-04-07T06:38:48Z</time>
      </trkpt>
      <trkpt lat="43.66808" lon="6.80837">
        <ele>539.9176025</ele>
        <time>2014-04-07T06:38:56Z</time>
      </trkpt>
      <trkpt lat="43.66797" lon="6.80773">
        <ele>539.4368896</ele>
        <time>2014-04-07T06:39:04Z</time>
      </trkpt>
      <trkpt lat="43.66795" lon="6.80753">
        <ele>538.9562988</ele>
        <time>2014-04-07T06:39:35Z</time>
      </trkpt>
      <trkpt lat="43.66832" lon="6.80781">
        <ele>540.3983154</ele>
        <time>2014-04-07T06:39:53Z</time>
      </trkpt>
      <trkpt lat="43.66878" lon="6.80789">
        <ele>541.3594971</ele>
        <time>2014-04-07T06:40:09Z</time>
      </trkpt>
      <trkpt lat="43.6691" lon="6.80842">
        <ele>537.5142822</ele>
        <time>2014-04-07T06:40:21Z</time>
      </trkpt>
      <trkpt lat="43.66919" lon="6.80901">
        <ele>536.0723877</ele>
        <time>2014-04-07T06:40:32Z</time>
      </trkpt>
      <trkpt lat="43.66935" lon="6.80963">
        <ele>533.6689453</ele>
        <time>2014-04-07T06:40:44Z</time>
      </trkpt>
      <trkpt lat="43.66937" lon="6.81011">
        <ele>534.6303711</ele>
        <time>2014-04-07T06:41:20Z</time>
      </trkpt>
      <trkpt lat="43.66943" lon="6.81036">
        <ele>533.6689453</ele>
        <time>2014-04-07T06:43:10Z</time>
      </trkpt>
      <trkpt lat="43.66952" lon="6.81102">
        <ele>532.7077637</ele>
        <time>2014-04-07T06:43:23Z</time>
      </trkpt>
      <trkpt lat="43.66965" lon="6.81164">
        <ele>531.7463379</ele>
        <time>2014-04-07T06:43:34Z</time>
      </trkpt>
      <trkpt lat="43.6697" lon="6.81227">
        <ele>532.7077637</ele>
        <time>2014-04-07T06:44:20Z</time>
      </trkpt>
      <trkpt lat="43.66988" lon="6.81289">
        <ele>534.6303711</ele>
        <time>2014-04-07T06:44:35Z</time>
      </trkpt>
      <trkpt lat="43.67005" lon="6.81349">
        <ele>535.5915527</ele>
        <time>2014-04-07T06:44:55Z</time>
      </trkpt>
      <trkpt lat="43.67029" lon="6.81411">
        <ele>533.1883545</ele>
        <time>2014-04-07T06:45:10Z</time>
      </trkpt>
      <trkpt lat="43.67042" lon="6.81471">
        <ele>532.7077637</ele>
        <time>2014-04-07T06:45:25Z</time>
      </trkpt>
      <trkpt lat="43.67049" lon="6.81532">
        <ele>534.1496582</ele>
        <time>2014-04-07T06:45:45Z</time>
      </trkpt>
      <trkpt lat="43.67047" lon="6.81584">
        <ele>531.7463379</ele>
        <time>2014-04-07T06:46:14Z</time>
      </trkpt>
      <trkpt lat="43.67016" lon="6.81637">
        <ele>532.7077637</ele>
        <time>2014-04-07T06:46:27Z</time>
      </trkpt>
      <trkpt lat="43.66994" lon="6.81696">
        <ele>533.1883545</ele>
        <time>2014-04-07T06:46:40Z</time>
      </trkpt>
      <trkpt lat="43.66964" lon="6.81745">
        <ele>535.1109619</ele>
        <time>2014-04-07T06:46:54Z</time>
      </trkpt>
      <trkpt lat="43.66942" lon="6.81799">
        <ele>536.0723877</ele>
        <time>2014-04-07T06:47:09Z</time>
      </trkpt>
      <trkpt lat="43.66934" lon="6.81866">
        <ele>539.4368896</ele>
        <time>2014-04-07T06:47:27Z</time>
      </trkpt>
      <trkpt lat="43.66909" lon="6.81931">
        <ele>543.2821045</ele>
        <time>2014-04-07T06:47:46Z</time>
      </trkpt>
      <trkpt lat="43.66868" lon="6.81961">
        <ele>549.5307617</ele>
        <time>2014-04-07T06:48:10Z</time>
      </trkpt>
      <trkpt lat="43.66846" lon="6.82016">
        <ele>549.5307617</ele>
        <time>2014-04-07T06:48:31Z</time>
      </trkpt>
      <trkpt lat="43.66839" lon="6.82084">
        <ele>549.0500488</ele>
        <time>2014-04-07T06:48:50Z</time>
      </trkpt>
      <trkpt lat="43.66834" lon="6.82148">
        <ele>549.5307617</ele>
        <time>2014-04-07T06:49:03Z</time>
      </trkpt>
      <trkpt lat="43.66817" lon="6.822">
        <ele>550.9726563</ele>
        <time>2014-04-07T06:49:19Z</time>
      </trkpt>
      <trkpt lat="43.66815" lon="6.82265">
        <ele>548.0888672</ele>
        <time>2014-04-07T06:49:30Z</time>
      </trkpt>
      <trkpt lat="43.6682" lon="6.82329">
        <ele>546.6468506</ele>
        <time>2014-04-07T06:49:42Z</time>
      </trkpt>
      <trkpt lat="43.668" lon="6.82385">
        <ele>547.6081543</ele>
        <time>2014-04-07T06:49:54Z</time>
      </trkpt>
      <trkpt lat="43.66786" lon="6.82449">
        <ele>548.5693359</ele>
        <time>2014-04-07T06:50:07Z</time>
      </trkpt>
      <trkpt lat="43.66772" lon="6.82509">
        <ele>549.0500488</ele>
        <time>2014-04-07T06:50:19Z</time>
      </trkpt>
      <trkpt lat="43.66754" lon="6.82564">
        <ele>550.0114746</ele>
        <time>2014-04-07T06:50:31Z</time>
      </trkpt>
      <trkpt lat="43.66744" lon="6.82633">
        <ele>550.4921875</ele>
        <time>2014-04-07T06:50:44Z</time>
      </trkpt>
      <trkpt lat="43.66725" lon="6.82693">
        <ele>551.934082</ele>
        <time>2014-04-07T06:50:58Z</time>
      </trkpt>
      <trkpt lat="43.66709" lon="6.82747">
        <ele>551.934082</ele>
        <time>2014-04-07T06:51:19Z</time>
      </trkpt>
      <trkpt lat="43.66698" lon="6.8281">
        <ele>552.8952637</ele>
        <time>2014-04-07T06:51:33Z</time>
      </trkpt>
      <trkpt lat="43.66694" lon="6.82872">
        <ele>553.8566895</ele>
        <time>2014-04-07T06:51:48Z</time>
      </trkpt>
      <trkpt lat="43.66685" lon="6.82937">
        <ele>555.298584</ele>
        <time>2014-04-07T06:52:06Z</time>
      </trkpt>
      <trkpt lat="43.66647" lon="6.8298">
        <ele>557.7021484</ele>
        <time>2014-04-07T06:52:24Z</time>
      </trkpt>
      <trkpt lat="43.66599" lon="6.83019">
        <ele>558.6633301</ele>
        <time>2014-04-07T06:52:41Z</time>
      </trkpt>
      <trkpt lat="43.66555" lon="6.8305">
        <ele>560.5859375</ele>
        <time>2014-04-07T06:52:55Z</time>
      </trkpt>
      <trkpt lat="43.66511" lon="6.83088">
        <ele>561.5473633</ele>
        <time>2014-04-07T06:53:09Z</time>
      </trkpt>
      <trkpt lat="43.66485" lon="6.83145">
        <ele>562.5085449</ele>
        <time>2014-04-07T06:53:22Z</time>
      </trkpt>
      <trkpt lat="43.66489" lon="6.83207">
        <ele>564.9118652</ele>
        <time>2014-04-07T06:53:37Z</time>
      </trkpt>
      <trkpt lat="43.66491" lon="6.83272">
        <ele>566.3537598</ele>
        <time>2014-04-07T06:53:53Z</time>
      </trkpt>
      <trkpt lat="43.66512" lon="6.83278">
        <ele>567.7956543</ele>
        <time>2014-04-07T06:56:49Z</time>
      </trkpt>
      <trkpt lat="43.66534" lon="6.83222">
        <ele>572.1218262</ele>
        <time>2014-04-07T06:57:09Z</time>
      </trkpt>
      <trkpt lat="43.66577" lon="6.83203">
        <ele>573.083252</ele>
        <time>2014-04-07T06:57:31Z</time>
      </trkpt>
      <trkpt lat="43.6662" lon="6.83192">
        <ele>572.6025391</ele>
        <time>2014-04-07T06:58:03Z</time>
      </trkpt>
      <trkpt lat="43.66646" lon="6.83241">
        <ele>576.9284668</ele>
        <time>2014-04-07T06:58:19Z</time>
      </trkpt>
      <trkpt lat="43.66679" lon="6.83281">
        <ele>582.6962891</ele>
        <time>2014-04-07T06:58:40Z</time>
      </trkpt>
      <trkpt lat="43.6672" lon="6.83247">
        <ele>582.2155762</ele>
        <time>2014-04-07T06:58:56Z</time>
      </trkpt>
      <trkpt lat="43.66735" lon="6.83292">
        <ele>586.060791</ele>
        <time>2014-04-07T06:59:15Z</time>
      </trkpt>
      <trkpt lat="43.66725" lon="6.83353">
        <ele>590.3869629</ele>
        <time>2014-04-07T06:59:36Z</time>
      </trkpt>
      <trkpt lat="43.66739" lon="6.83388">
        <ele>594.7126465</ele>
        <time>2014-04-07T07:00:09Z</time>
      </trkpt>
      <trkpt lat="43.66756" lon="6.83339">
        <ele>591.8288574</ele>
        <time>2014-04-07T07:00:24Z</time>
      </trkpt>
      <trkpt lat="43.6676" lon="6.83281">
        <ele>588.9450684</ele>
        <time>2014-04-07T07:00:37Z</time>
      </trkpt>
      <trkpt lat="43.6678" lon="6.83226">
        <ele>588.4643555</ele>
        <time>2014-04-07T07:00:49Z</time>
      </trkpt>
      <trkpt lat="43.66794" lon="6.83194">
        <ele>588.4643555</ele>
        <time>2014-04-07T07:02:42Z</time>
      </trkpt>
      <trkpt lat="43.6677" lon="6.83248">
        <ele>587.9833984</ele>
        <time>2014-04-07T07:02:55Z</time>
      </trkpt>
      <trkpt lat="43.66767" lon="6.83299">
        <ele>589.90625</ele>
        <time>2014-04-07T07:03:08Z</time>
      </trkpt>
      <trkpt lat="43.66751" lon="6.83357">
        <ele>592.7902832</ele>
        <time>2014-04-07T07:03:23Z</time>
      </trkpt>
      <trkpt lat="43.66723" lon="6.83398">
        <ele>593.270752</ele>
        <time>2014-04-07T07:03:39Z</time>
      </trkpt>
      <trkpt lat="43.6675" lon="6.83419">
        <ele>599.0385742</ele>
        <time>2014-04-07T07:03:58Z</time>
      </trkpt>
      <trkpt lat="43.6679" lon="6.83382">
        <ele>601.4418945</ele>
        <time>2014-04-07T07:04:15Z</time>
      </trkpt>
      <trkpt lat="43.66831" lon="6.8335">
        <ele>606.2485352</ele>
        <time>2014-04-07T07:04:36Z</time>
      </trkpt>
      <trkpt lat="43.66863" lon="6.8331">
        <ele>609.6132813</ele>
        <time>2014-04-07T07:06:08Z</time>
      </trkpt>
      <trkpt lat="43.66892" lon="6.83256">
        <ele>608.6518555</ele>
        <time>2014-04-07T07:06:23Z</time>
      </trkpt>
      <trkpt lat="43.66925" lon="6.83209">
        <ele>609.1325684</ele>
        <time>2014-04-07T07:06:34Z</time>
      </trkpt>
      <trkpt lat="43.66953" lon="6.83159">
        <ele>608.6518555</ele>
        <time>2014-04-07T07:06:44Z</time>
      </trkpt>
      <trkpt lat="43.66969" lon="6.83099">
        <ele>608.1713867</ele>
        <time>2014-04-07T07:06:54Z</time>
      </trkpt>
      <trkpt lat="43.66982" lon="6.83037">
        <ele>608.1713867</ele>
        <time>2014-04-07T07:07:03Z</time>
      </trkpt>
      <trkpt lat="43.66996" lon="6.82971">
        <ele>609.1325684</ele>
        <time>2014-04-07T07:07:13Z</time>
      </trkpt>
      <trkpt lat="43.67009" lon="6.82906">
        <ele>609.1325684</ele>
        <time>2014-04-07T07:07:23Z</time>
      </trkpt>
      <trkpt lat="43.67018" lon="6.82841">
        <ele>609.1325684</ele>
        <time>2014-04-07T07:07:32Z</time>
      </trkpt>
      <trkpt lat="43.67036" lon="6.82783">
        <ele>609.1325684</ele>
        <time>2014-04-07T07:07:41Z</time>
      </trkpt>
      <trkpt lat="43.67055" lon="6.82726">
        <ele>609.6132813</ele>
        <time>2014-04-07T07:07:50Z</time>
      </trkpt>
      <trkpt lat="43.67083" lon="6.82675">
        <ele>609.1325684</ele>
        <time>2014-04-07T07:07:59Z</time>
      </trkpt>
      <trkpt lat="43.67112" lon="6.82626">
        <ele>608.6518555</ele>
        <time>2014-04-07T07:08:07Z</time>
      </trkpt>
      <trkpt lat="43.67141" lon="6.82571">
        <ele>609.6132813</ele>
        <time>2014-04-07T07:08:16Z</time>
      </trkpt>
      <trkpt lat="43.67165" lon="6.82517">
        <ele>610.09375</ele>
        <time>2014-04-07T07:08:26Z</time>
      </trkpt>
      <trkpt lat="43.67195" lon="6.82467">
        <ele>610.09375</ele>
        <time>2014-04-07T07:08:35Z</time>
      </trkpt>
      <trkpt lat="43.6723" lon="6.82419">
        <ele>609.6132813</ele>
        <time>2014-04-07T07:08:45Z</time>
      </trkpt>
      <trkpt lat="43.67265" lon="6.82376">
        <ele>609.6132813</ele>
        <time>2014-04-07T07:08:53Z</time>
      </trkpt>
      <trkpt lat="43.67293" lon="6.82323">
        <ele>610.09375</ele>
        <time>2014-04-07T07:09:02Z</time>
      </trkpt>
      <trkpt lat="43.67314" lon="6.82268">
        <ele>609.1325684</ele>
        <time>2014-04-07T07:09:10Z</time>
      </trkpt>
      <trkpt lat="43.67327" lon="6.82206">
        <ele>609.6132813</ele>
        <time>2014-04-07T07:09:19Z</time>
      </trkpt>
      <trkpt lat="43.67334" lon="6.82142">
        <ele>610.5744629</ele>
        <time>2014-04-07T07:09:28Z</time>
      </trkpt>
      <trkpt lat="43.67341" lon="6.82079">
        <ele>610.5744629</ele>
        <time>2014-04-07T07:09:37Z</time>
      </trkpt>
      <trkpt lat="43.67352" lon="6.82015">
        <ele>610.5744629</ele>
        <time>2014-04-07T07:09:46Z</time>
      </trkpt>
      <trkpt lat="43.67362" lon="6.81953">
        <ele>611.0551758</ele>
        <time>2014-04-07T07:09:55Z</time>
      </trkpt>
      <trkpt lat="43.67375" lon="6.81891">
        <ele>612.4970703</ele>
        <time>2014-04-07T07:10:05Z</time>
      </trkpt>
      <trkpt lat="43.67392" lon="6.81831">
        <ele>612.0166016</ele>
        <time>2014-04-07T07:10:15Z</time>
      </trkpt>
      <trkpt lat="43.67414" lon="6.81773">
        <ele>611.5358887</ele>
        <time>2014-04-07T07:10:25Z</time>
      </trkpt>
      <trkpt lat="43.67431" lon="6.81715">
        <ele>609.6132813</ele>
        <time>2014-04-07T07:10:34Z</time>
      </trkpt>
      <trkpt lat="43.67443" lon="6.81654">
        <ele>608.6518555</ele>
        <time>2014-04-07T07:10:41Z</time>
      </trkpt>
      <trkpt lat="43.67453" lon="6.81591">
        <ele>612.0166016</ele>
        <time>2014-04-07T07:10:53Z</time>
      </trkpt>
      <trkpt lat="43.67459" lon="6.81529">
        <ele>612.0166016</ele>
        <time>2014-04-07T07:11:04Z</time>
      </trkpt>
      <trkpt lat="43.67465" lon="6.81465">
        <ele>612.9777832</ele>
        <time>2014-04-07T07:11:15Z</time>
      </trkpt>
      <trkpt lat="43.67473" lon="6.81397">
        <ele>613.4584961</ele>
        <time>2014-04-07T07:11:26Z</time>
      </trkpt>
      <trkpt lat="43.67484" lon="6.81335">
        <ele>613.4584961</ele>
        <time>2014-04-07T07:11:36Z</time>
      </trkpt>
      <trkpt lat="43.67492" lon="6.81272">
        <ele>613.9389648</ele>
        <time>2014-04-07T07:11:48Z</time>
      </trkpt>
      <trkpt lat="43.6752" lon="6.81229">
        <ele>615.3811035</ele>
        <time>2014-04-07T07:12:55Z</time>
      </trkpt>
      <trkpt lat="43.67535" lon="6.81168">
        <ele>616.822998</ele>
        <time>2014-04-07T07:13:08Z</time>
      </trkpt>
      <trkpt lat="43.67557" lon="6.8111">
        <ele>621.1491699</ele>
        <time>2014-04-07T07:13:23Z</time>
      </trkpt>
      <trkpt lat="43.67581" lon="6.81053">
        <ele>624.032959</ele>
        <time>2014-04-07T07:13:38Z</time>
      </trkpt>
      <trkpt lat="43.67603" lon="6.80998">
        <ele>626.9169922</ele>
        <time>2014-04-07T07:13:53Z</time>
      </trkpt>
      <trkpt lat="43.67627" lon="6.80943">
        <ele>629.8007813</ele>
        <time>2014-04-07T07:14:08Z</time>
      </trkpt>
      <trkpt lat="43.67657" lon="6.80893">
        <ele>633.1652832</ele>
        <time>2014-04-07T07:14:25Z</time>
      </trkpt>
      <trkpt lat="43.6768" lon="6.80839">
        <ele>636.5302734</ele>
        <time>2014-04-07T07:14:42Z</time>
      </trkpt>
      <trkpt lat="43.67683" lon="6.80773">
        <ele>639.4140625</ele>
        <time>2014-04-07T07:15:00Z</time>
      </trkpt>
      <trkpt lat="43.67685" lon="6.80711">
        <ele>642.2980957</ele>
        <time>2014-04-07T07:15:18Z</time>
      </trkpt>
      <trkpt lat="43.67702" lon="6.80653">
        <ele>645.6625977</ele>
        <time>2014-04-07T07:15:36Z</time>
      </trkpt>
      <trkpt lat="43.67727" lon="6.80598">
        <ele>648.5463867</ele>
        <time>2014-04-07T07:15:54Z</time>
      </trkpt>
      <trkpt lat="43.6776" lon="6.8055">
        <ele>651.4304199</ele>
        <time>2014-04-07T07:16:12Z</time>
      </trkpt>
      <trkpt lat="43.67801" lon="6.80521">
        <ele>654.795166</ele>
        <time>2014-04-07T07:16:30Z</time>
      </trkpt>
      <trkpt lat="43.67842" lon="6.80491">
        <ele>657.6791992</ele>
        <time>2014-04-07T07:16:48Z</time>
      </trkpt>
      <trkpt lat="43.67886" lon="6.80495">
        <ele>661.0437012</ele>
        <time>2014-04-07T07:17:05Z</time>
      </trkpt>
      <trkpt lat="43.67925" lon="6.80536">
        <ele>663.9274902</ele>
        <time>2014-04-07T07:17:23Z</time>
      </trkpt>
      <trkpt lat="43.67959" lon="6.80575">
        <ele>666.8115234</ele>
        <time>2014-04-07T07:17:40Z</time>
      </trkpt>
      <trkpt lat="43.67996" lon="6.80605">
        <ele>668.734375</ele>
        <time>2014-04-07T07:17:56Z</time>
      </trkpt>
      <trkpt lat="43.68034" lon="6.80569">
        <ele>672.098877</ele>
        <time>2014-04-07T07:18:12Z</time>
      </trkpt>
      <trkpt lat="43.68063" lon="6.80553">
        <ele>674.5021973</ele>
        <time>2014-04-07T07:18:29Z</time>
      </trkpt>
      <trkpt lat="43.68043" lon="6.80612">
        <ele>676.9055176</ele>
        <time>2014-04-07T07:18:44Z</time>
      </trkpt>
      <trkpt lat="43.68033" lon="6.80674">
        <ele>679.7893066</ele>
        <time>2014-04-07T07:19:00Z</time>
      </trkpt>
      <trkpt lat="43.68026" lon="6.80736">
        <ele>682.192627</ele>
        <time>2014-04-07T07:19:19Z</time>
      </trkpt>
      <trkpt lat="43.68023" lon="6.80801">
        <ele>683.1538086</ele>
        <time>2014-04-07T07:19:34Z</time>
      </trkpt>
      <trkpt lat="43.6802" lon="6.80864">
        <ele>684.1154785</ele>
        <time>2014-04-07T07:19:47Z</time>
      </trkpt>
      <trkpt lat="43.68016" lon="6.80926">
        <ele>685.0769043</ele>
        <time>2014-04-07T07:20:00Z</time>
      </trkpt>
      <trkpt lat="43.68012" lon="6.80994">
        <ele>686.5187988</ele>
        <time>2014-04-07T07:20:13Z</time>
      </trkpt>
      <trkpt lat="43.6802" lon="6.81058">
        <ele>687.4799805</ele>
        <time>2014-04-07T07:20:26Z</time>
      </trkpt>
      <trkpt lat="43.68046" lon="6.81108">
        <ele>688.9221191</ele>
        <time>2014-04-07T07:20:39Z</time>
      </trkpt>
      <trkpt lat="43.68085" lon="6.81145">
        <ele>689.8833008</ele>
        <time>2014-04-07T07:20:53Z</time>
      </trkpt>
      <trkpt lat="43.68077" lon="6.81135">
        <ele>689.4025879</ele>
        <time>2014-04-07T07:21:12Z</time>
      </trkpt>
      <trkpt lat="43.68041" lon="6.81094">
        <ele>688.4414063</ele>
        <time>2014-04-07T07:21:25Z</time>
      </trkpt>
      <trkpt lat="43.68018" lon="6.8104">
        <ele>686.9992676</ele>
        <time>2014-04-07T07:21:35Z</time>
      </trkpt>
      <trkpt lat="43.68038" lon="6.80998">
        <ele>686.5187988</ele>
        <time>2014-04-07T07:21:55Z</time>
      </trkpt>
      <trkpt lat="43.68021" lon="6.81036">
        <ele>687.4799805</ele>
        <time>2014-04-07T07:22:22Z</time>
      </trkpt>
      <trkpt lat="43.68045" lon="6.81094">
        <ele>688.4414063</ele>
        <time>2014-04-07T07:22:37Z</time>
      </trkpt>
      <trkpt lat="43.68083" lon="6.81133">
        <ele>689.8833008</ele>
        <time>2014-04-07T07:22:52Z</time>
      </trkpt>
      <trkpt lat="43.68107" lon="6.81141">
        <ele>688.4414063</ele>
        <time>2014-04-07T07:23:12Z</time>
      </trkpt>
      <trkpt lat="43.68153" lon="6.81124">
        <ele>685.0769043</ele>
        <time>2014-04-07T07:23:35Z</time>
      </trkpt>
      <trkpt lat="43.68173" lon="6.81153">
        <ele>686.5187988</ele>
        <time>2014-04-07T07:24:11Z</time>
      </trkpt>
      <trkpt lat="43.68182" lon="6.81215">
        <ele>691.3251953</ele>
        <time>2014-04-07T07:24:27Z</time>
      </trkpt>
      <trkpt lat="43.68193" lon="6.81278">
        <ele>693.7285156</ele>
        <time>2014-04-07T07:24:45Z</time>
      </trkpt>
      <trkpt lat="43.68226" lon="6.81312">
        <ele>692.767334</ele>
        <time>2014-04-07T07:25:01Z</time>
      </trkpt>
      <trkpt lat="43.68273" lon="6.81307">
        <ele>692.2866211</ele>
        <time>2014-04-07T07:25:12Z</time>
      </trkpt>
      <trkpt lat="43.68319" lon="6.8131">
        <ele>691.8059082</ele>
        <time>2014-04-07T07:25:23Z</time>
      </trkpt>
      <trkpt lat="43.68367" lon="6.81307">
        <ele>688.4414063</ele>
        <time>2014-04-07T07:25:33Z</time>
      </trkpt>
      <trkpt lat="43.68403" lon="6.81283">
        <ele>687.4799805</ele>
        <time>2014-04-07T07:26:00Z</time>
      </trkpt>
      <trkpt lat="43.68425" lon="6.81233">
        <ele>682.192627</ele>
        <time>2014-04-07T07:27:08Z</time>
      </trkpt>
      <trkpt lat="43.68462" lon="6.81199">
        <ele>676.9055176</ele>
        <time>2014-04-07T07:27:18Z</time>
      </trkpt>
      <trkpt lat="43.68505" lon="6.81174">
        <ele>673.0603027</ele>
        <time>2014-04-07T07:27:25Z</time>
      </trkpt>
      <trkpt lat="43.68552" lon="6.81163">
        <ele>672.5795898</ele>
        <time>2014-04-07T07:27:38Z</time>
      </trkpt>
      <trkpt lat="43.68594" lon="6.81158">
        <ele>671.6181641</ele>
        <time>2014-04-07T07:31:27Z</time>
      </trkpt>
      <trkpt lat="43.68632" lon="6.81127">
        <ele>667.7727051</ele>
        <time>2014-04-07T07:31:42Z</time>
      </trkpt>
      <trkpt lat="43.68662" lon="6.81074">
        <ele>666.8115234</ele>
        <time>2014-04-07T07:31:53Z</time>
      </trkpt>
      <trkpt lat="43.68697" lon="6.81027">
        <ele>664.4082031</ele>
        <time>2014-04-07T07:32:05Z</time>
      </trkpt>
      <trkpt lat="43.68736" lon="6.80986">
        <ele>660.0822754</ele>
        <time>2014-04-07T07:32:14Z</time>
      </trkpt>
      <trkpt lat="43.68769" lon="6.80948">
        <ele>655.2758789</ele>
        <time>2014-04-07T07:32:23Z</time>
      </trkpt>
      <trkpt lat="43.6878" lon="6.80887">
        <ele>651.9111328</ele>
        <time>2014-04-07T07:32:33Z</time>
      </trkpt>
      <trkpt lat="43.68819" lon="6.80869">
        <ele>647.5852051</ele>
        <time>2014-04-07T07:32:42Z</time>
      </trkpt>
      <trkpt lat="43.6886" lon="6.80878">
        <ele>643.7399902</ele>
        <time>2014-04-07T07:36:03Z</time>
      </trkpt>
      <trkpt lat="43.68884" lon="6.80934">
        <ele>639.8947754</ele>
        <time>2014-04-07T07:36:13Z</time>
      </trkpt>
      <trkpt lat="43.68888" lon="6.81003">
        <ele>637.4914551</ele>
        <time>2014-04-07T07:36:24Z</time>
      </trkpt>
      <trkpt lat="43.68891" lon="6.81066">
        <ele>634.126709</ele>
        <time>2014-04-07T07:36:32Z</time>
      </trkpt>
      <trkpt lat="43.6889" lon="6.81134">
        <ele>632.6848145</ele>
        <time>2014-04-07T07:36:40Z</time>
      </trkpt>
      <trkpt lat="43.689" lon="6.81193">
        <ele>628.8395996</ele>
        <time>2014-04-07T07:36:48Z</time>
      </trkpt>
      <trkpt lat="43.68893" lon="6.81251">
        <ele>625.4748535</ele>
        <time>2014-04-07T07:37:01Z</time>
      </trkpt>
      <trkpt lat="43.68918" lon="6.81306">
        <ele>624.5136719</ele>
        <time>2014-04-07T07:37:18Z</time>
      </trkpt>
      <trkpt lat="43.68937" lon="6.8132">
        <ele>624.032959</ele>
        <time>2014-04-07T07:38:41Z</time>
      </trkpt>
      <trkpt lat="43.68966" lon="6.81269">
        <ele>622.1103516</ele>
        <time>2014-04-07T07:38:52Z</time>
      </trkpt>
      <trkpt lat="43.69001" lon="6.81226">
        <ele>620.668457</ele>
        <time>2014-04-07T07:39:03Z</time>
      </trkpt>
      <trkpt lat="43.69038" lon="6.812">
        <ele>618.7456055</ele>
        <time>2014-04-07T07:39:14Z</time>
      </trkpt>
      <trkpt lat="43.69079" lon="6.81214">
        <ele>616.822998</ele>
        <time>2014-04-07T07:39:25Z</time>
      </trkpt>
      <trkpt lat="43.6911" lon="6.81218">
        <ele>616.822998</ele>
        <time>2014-04-07T07:39:36Z</time>
      </trkpt>
      <trkpt lat="43.69126" lon="6.81277">
        <ele>618.2648926</ele>
        <time>2014-04-07T07:39:47Z</time>
      </trkpt>
      <trkpt lat="43.69128" lon="6.81341">
        <ele>618.2648926</ele>
        <time>2014-04-07T07:39:58Z</time>
      </trkpt>
      <trkpt lat="43.69158" lon="6.81361">
        <ele>621.6296387</ele>
        <time>2014-04-07T07:40:13Z</time>
      </trkpt>
      <trkpt lat="43.69179" lon="6.81305">
        <ele>621.6296387</ele>
        <time>2014-04-07T07:40:28Z</time>
      </trkpt>
      <trkpt lat="43.69221" lon="6.81285">
        <ele>616.3422852</ele>
        <time>2014-04-07T07:40:41Z</time>
      </trkpt>
      <trkpt lat="43.69256" lon="6.81244">
        <ele>612.4970703</ele>
        <time>2014-04-07T07:40:56Z</time>
      </trkpt>
      <trkpt lat="43.69298" lon="6.81231">
        <ele>609.1325684</ele>
        <time>2014-04-07T07:41:10Z</time>
      </trkpt>
      <trkpt lat="43.69321" lon="6.81222">
        <ele>606.729248</ele>
        <time>2014-04-07T07:42:28Z</time>
      </trkpt>
      <trkpt lat="43.69332" lon="6.81207">
        <ele>603.8452148</ele>
        <time>2014-04-07T07:43:05Z</time>
      </trkpt>
      <trkpt lat="43.6934" lon="6.81263">
        <ele>604.3261719</ele>
        <time>2014-04-07T07:43:29Z</time>
      </trkpt>
      <trkpt lat="43.69302" lon="6.81292">
        <ele>606.729248</ele>
        <time>2014-04-07T07:43:47Z</time>
      </trkpt>
      <trkpt lat="43.69267" lon="6.81331">
        <ele>612.0166016</ele>
        <time>2014-04-07T07:44:06Z</time>
      </trkpt>
      <trkpt lat="43.69254" lon="6.81385">
        <ele>615.3811035</ele>
        <time>2014-04-07T07:44:27Z</time>
      </trkpt>
      <trkpt lat="43.69288" lon="6.81391">
        <ele>618.2648926</ele>
        <time>2014-04-07T07:44:52Z</time>
      </trkpt>
      <trkpt lat="43.69322" lon="6.81415">
        <ele>620.668457</ele>
        <time>2014-04-07T07:45:13Z</time>
      </trkpt>
      <trkpt lat="43.69317" lon="6.81477">
        <ele>619.7070313</ele>
        <time>2014-04-07T07:45:28Z</time>
      </trkpt>
      <trkpt lat="43.69311" lon="6.81539">
        <ele>620.668457</ele>
        <time>2014-04-07T07:45:39Z</time>
      </trkpt>
      <trkpt lat="43.6931" lon="6.81605">
        <ele>620.668457</ele>
        <time>2014-04-07T07:45:51Z</time>
      </trkpt>
      <trkpt lat="43.69311" lon="6.81668">
        <ele>624.5136719</ele>
        <time>2014-04-07T07:46:04Z</time>
      </trkpt>
      <trkpt lat="43.69315" lon="6.81734">
        <ele>627.3977051</ele>
        <time>2014-04-07T07:46:19Z</time>
      </trkpt>
      <trkpt lat="43.69319" lon="6.81798">
        <ele>628.3588867</ele>
        <time>2014-04-07T07:46:32Z</time>
      </trkpt>
      <trkpt lat="43.69314" lon="6.81863">
        <ele>629.8007813</ele>
        <time>2014-04-07T07:46:45Z</time>
      </trkpt>
      <trkpt lat="43.69318" lon="6.81927">
        <ele>632.2041016</ele>
        <time>2014-04-07T07:47:00Z</time>
      </trkpt>
      <trkpt lat="43.69338" lon="6.81985">
        <ele>634.6074219</ele>
        <time>2014-04-07T07:47:16Z</time>
      </trkpt>
      <trkpt lat="43.69356" lon="6.82044">
        <ele>637.972168</ele>
        <time>2014-04-07T07:47:32Z</time>
      </trkpt>
      <trkpt lat="43.69376" lon="6.82102">
        <ele>642.2980957</ele>
        <time>2014-04-07T07:47:50Z</time>
      </trkpt>
      <trkpt lat="43.69402" lon="6.82152">
        <ele>645.6625977</ele>
        <time>2014-04-07T07:48:08Z</time>
      </trkpt>
      <trkpt lat="43.6943" lon="6.82205">
        <ele>648.5463867</ele>
        <time>2014-04-07T07:48:26Z</time>
      </trkpt>
      <trkpt lat="43.69459" lon="6.82253">
        <ele>652.3918457</ele>
        <time>2014-04-07T07:48:45Z</time>
      </trkpt>
      <trkpt lat="43.69481" lon="6.8231">
        <ele>657.1984863</ele>
        <time>2014-04-07T07:49:10Z</time>
      </trkpt>
      <trkpt lat="43.69502" lon="6.82365">
        <ele>660.0822754</ele>
        <time>2014-04-07T07:49:31Z</time>
      </trkpt>
      <trkpt lat="43.69535" lon="6.8241">
        <ele>662.9663086</ele>
        <time>2014-04-07T07:49:48Z</time>
      </trkpt>
      <trkpt lat="43.69569" lon="6.82452">
        <ele>664.888916</ele>
        <time>2014-04-07T07:50:04Z</time>
      </trkpt>
      <trkpt lat="43.69611" lon="6.82475">
        <ele>668.2536621</ele>
        <time>2014-04-07T07:50:21Z</time>
      </trkpt>
      <trkpt lat="43.69614" lon="6.82536">
        <ele>669.6958008</ele>
        <time>2014-04-07T07:50:37Z</time>
      </trkpt>
      <trkpt lat="43.6962" lon="6.82599">
        <ele>670.1762695</ele>
        <time>2014-04-07T07:50:51Z</time>
      </trkpt>
      <trkpt lat="43.69624" lon="6.82664">
        <ele>668.734375</ele>
        <time>2014-04-07T07:51:03Z</time>
      </trkpt>
      <trkpt lat="43.69618" lon="6.82729">
        <ele>668.2536621</ele>
        <time>2014-04-07T07:51:14Z</time>
      </trkpt>
      <trkpt lat="43.69624" lon="6.82796">
        <ele>666.8115234</ele>
        <time>2014-04-07T07:51:24Z</time>
      </trkpt>
      <trkpt lat="43.69633" lon="6.82858">
        <ele>667.2922363</ele>
        <time>2014-04-07T07:51:33Z</time>
      </trkpt>
      <trkpt lat="43.69648" lon="6.82921">
        <ele>669.6958008</ele>
        <time>2014-04-07T07:51:44Z</time>
      </trkpt>
      <trkpt lat="43.69671" lon="6.82978">
        <ele>671.1376953</ele>
        <time>2014-04-07T07:51:57Z</time>
      </trkpt>
      <trkpt lat="43.6969" lon="6.83036">
        <ele>671.6181641</ele>
        <time>2014-04-07T07:52:09Z</time>
      </trkpt>
      <trkpt lat="43.6972" lon="6.83088">
        <ele>672.5795898</ele>
        <time>2014-04-07T07:52:21Z</time>
      </trkpt>
      <trkpt lat="43.69754" lon="6.83132">
        <ele>675.9440918</ele>
        <time>2014-04-07T07:52:35Z</time>
      </trkpt>
      <trkpt lat="43.69771" lon="6.83192">
        <ele>676.9055176</ele>
        <time>2014-04-07T07:52:48Z</time>
      </trkpt>
      <trkpt lat="43.6977" lon="6.83255">
        <ele>677.3862305</ele>
        <time>2014-04-07T07:53:00Z</time>
      </trkpt>
      <trkpt lat="43.69779" lon="6.83321">
        <ele>679.3085938</ele>
        <time>2014-04-07T07:53:13Z</time>
      </trkpt>
      <trkpt lat="43.69804" lon="6.83379">
        <ele>682.6733398</ele>
        <time>2014-04-07T07:53:27Z</time>
      </trkpt>
      <trkpt lat="43.69805" lon="6.83439">
        <ele>687.4799805</ele>
        <time>2014-04-07T07:53:48Z</time>
      </trkpt>
      <trkpt lat="43.69815" lon="6.83503">
        <ele>693.2478027</ele>
        <time>2014-04-07T07:54:12Z</time>
      </trkpt>
      <trkpt lat="43.69851" lon="6.83545">
        <ele>696.6125488</ele>
        <time>2014-04-07T07:54:31Z</time>
      </trkpt>
      <trkpt lat="43.69871" lon="6.83605">
        <ele>701.4191895</ele>
        <time>2014-04-07T07:54:52Z</time>
      </trkpt>
      <trkpt lat="43.69892" lon="6.8366">
        <ele>704.3032227</ele>
        <time>2014-04-07T07:55:14Z</time>
      </trkpt>
      <trkpt lat="43.69906" lon="6.83719">
        <ele>699.015625</ele>
        <time>2014-04-07T07:55:24Z</time>
      </trkpt>
      <trkpt lat="43.69887" lon="6.83788">
        <ele>690.3640137</ele>
        <time>2014-04-07T07:55:30Z</time>
      </trkpt>
      <trkpt lat="43.69865" lon="6.83857">
        <ele>684.5961914</ele>
        <time>2014-04-07T07:55:35Z</time>
      </trkpt>
      <trkpt lat="43.69846" lon="6.83924">
        <ele>685.0769043</ele>
        <time>2014-04-07T07:55:40Z</time>
      </trkpt>
      <trkpt lat="43.69821" lon="6.83987">
        <ele>685.557373</ele>
        <time>2014-04-07T07:55:46Z</time>
      </trkpt>
      <trkpt lat="43.69804" lon="6.84044">
        <ele>685.557373</ele>
        <time>2014-04-07T07:55:52Z</time>
      </trkpt>
      <trkpt lat="43.69794" lon="6.84108">
        <ele>682.6733398</ele>
        <time>2014-04-07T07:55:58Z</time>
      </trkpt>
      <trkpt lat="43.69789" lon="6.84171">
        <ele>682.6733398</ele>
        <time>2014-04-07T07:56:04Z</time>
      </trkpt>
      <trkpt lat="43.6979" lon="6.84233">
        <ele>683.6345215</ele>
        <time>2014-04-07T07:56:12Z</time>
      </trkpt>
      <trkpt lat="43.69794" lon="6.84301">
        <ele>685.557373</ele>
        <time>2014-04-07T07:56:22Z</time>
      </trkpt>
      <trkpt lat="43.69774" lon="6.8436">
        <ele>687.4799805</ele>
        <time>2014-04-07T07:56:34Z</time>
      </trkpt>
      <trkpt lat="43.69761" lon="6.8442">
        <ele>691.3251953</ele>
        <time>2014-04-07T07:56:49Z</time>
      </trkpt>
      <trkpt lat="43.69766" lon="6.84485">
        <ele>696.1318359</ele>
        <time>2014-04-07T07:57:05Z</time>
      </trkpt>
      <trkpt lat="43.69774" lon="6.84545">
        <ele>699.9770508</ele>
        <time>2014-04-07T07:57:21Z</time>
      </trkpt>
      <trkpt lat="43.69752" lon="6.84581">
        <ele>707.1870117</ele>
        <time>2014-04-07T07:57:46Z</time>
      </trkpt>
      <trkpt lat="43.69764" lon="6.84643">
        <ele>707.6677246</ele>
        <time>2014-04-07T07:58:05Z</time>
      </trkpt>
      <trkpt lat="43.69766" lon="6.84705">
        <ele>705.7451172</ele>
        <time>2014-04-07T07:58:18Z</time>
      </trkpt>
      <trkpt lat="43.69797" lon="6.84751">
        <ele>707.1870117</ele>
        <time>2014-04-07T07:58:31Z</time>
      </trkpt>
      <trkpt lat="43.69843" lon="6.84764">
        <ele>710.0708008</ele>
        <time>2014-04-07T07:58:49Z</time>
      </trkpt>
      <trkpt lat="43.69878" lon="6.84801">
        <ele>711.9936523</ele>
        <time>2014-04-07T07:59:10Z</time>
      </trkpt>
      <trkpt lat="43.69841" lon="6.84819">
        <ele>711.0322266</ele>
        <time>2014-04-07T07:59:27Z</time>
      </trkpt>
      <trkpt lat="43.69822" lon="6.84878">
        <ele>711.5129395</ele>
        <time>2014-04-07T07:59:42Z</time>
      </trkpt>
      <trkpt lat="43.69811" lon="6.84942">
        <ele>711.9936523</ele>
        <time>2014-04-07T07:59:54Z</time>
      </trkpt>
      <trkpt lat="43.69791" lon="6.85005">
        <ele>711.9936523</ele>
        <time>2014-04-07T08:00:06Z</time>
      </trkpt>
      <trkpt lat="43.69765" lon="6.85058">
        <ele>710.0708008</ele>
        <time>2014-04-07T08:00:15Z</time>
      </trkpt>
      <trkpt lat="43.69734" lon="6.85106">
        <ele>709.1096191</ele>
        <time>2014-04-07T08:00:23Z</time>
      </trkpt>
      <trkpt lat="43.69702" lon="6.85155">
        <ele>709.1096191</ele>
        <time>2014-04-07T08:00:31Z</time>
      </trkpt>
      <trkpt lat="43.69672" lon="6.85206">
        <ele>709.590332</ele>
        <time>2014-04-07T08:07:57Z</time>
      </trkpt>
      <trkpt lat="43.69639" lon="6.85254">
        <ele>709.1096191</ele>
        <time>2014-04-07T08:08:07Z</time>
      </trkpt>
      <trkpt lat="43.6961" lon="6.85303">
        <ele>708.6289063</ele>
        <time>2014-04-07T08:08:16Z</time>
      </trkpt>
      <trkpt lat="43.69577" lon="6.85355">
        <ele>708.6289063</ele>
        <time>2014-04-07T08:08:25Z</time>
      </trkpt>
      <trkpt lat="43.69547" lon="6.85403">
        <ele>710.0708008</ele>
        <time>2014-04-07T08:08:33Z</time>
      </trkpt>
      <trkpt lat="43.69515" lon="6.85453">
        <ele>711.5129395</ele>
        <time>2014-04-07T08:08:42Z</time>
      </trkpt>
      <trkpt lat="43.69483" lon="6.85505">
        <ele>712.954834</ele>
        <time>2014-04-07T08:08:52Z</time>
      </trkpt>
      <trkpt lat="43.69452" lon="6.85553">
        <ele>713.9160156</ele>
        <time>2014-04-07T08:09:03Z</time>
      </trkpt>
      <trkpt lat="43.69421" lon="6.85601">
        <ele>716.800293</ele>
        <time>2014-04-07T08:09:14Z</time>
      </trkpt>
      <trkpt lat="43.69395" lon="6.85657">
        <ele>718.2421875</ele>
        <time>2014-04-07T08:09:25Z</time>
      </trkpt>
      <trkpt lat="43.69375" lon="6.85714">
        <ele>721.1262207</ele>
        <time>2014-04-07T08:09:37Z</time>
      </trkpt>
      <trkpt lat="43.69359" lon="6.85773">
        <ele>723.529541</ele>
        <time>2014-04-07T08:09:49Z</time>
      </trkpt>
      <trkpt lat="43.69344" lon="6.85835">
        <ele>724.4907227</ele>
        <time>2014-04-07T08:10:01Z</time>
      </trkpt>
      <trkpt lat="43.69331" lon="6.85894">
        <ele>726.4133301</ele>
        <time>2014-04-07T08:10:12Z</time>
      </trkpt>
      <trkpt lat="43.69308" lon="6.85954">
        <ele>727.8552246</ele>
        <time>2014-04-07T08:10:24Z</time>
      </trkpt>
      <trkpt lat="43.69278" lon="6.86007">
        <ele>728.8166504</ele>
        <time>2014-04-07T08:10:36Z</time>
      </trkpt>
      <trkpt lat="43.69246" lon="6.86051">
        <ele>729.2971191</ele>
        <time>2014-04-07T08:10:47Z</time>
      </trkpt>
      <trkpt lat="43.69218" lon="6.86102">
        <ele>730.2585449</ele>
        <time>2014-04-07T08:10:57Z</time>
      </trkpt>
      <trkpt lat="43.69191" lon="6.86157">
        <ele>732.1813965</ele>
        <time>2014-04-07T08:11:08Z</time>
      </trkpt>
      <trkpt lat="43.69164" lon="6.86211">
        <ele>734.1040039</ele>
        <time>2014-04-07T08:11:20Z</time>
      </trkpt>
      <trkpt lat="43.69141" lon="6.86271">
        <ele>736.5073242</ele>
        <time>2014-04-07T08:11:32Z</time>
      </trkpt>
      <trkpt lat="43.69125" lon="6.86334">
        <ele>737.9492188</ele>
        <time>2014-04-07T08:11:44Z</time>
      </trkpt>
      <trkpt lat="43.69115" lon="6.86398">
        <ele>738.9106445</ele>
        <time>2014-04-07T08:11:56Z</time>
      </trkpt>
      <trkpt lat="43.69102" lon="6.8646">
        <ele>740.3525391</ele>
        <time>2014-04-07T08:12:08Z</time>
      </trkpt>
      <trkpt lat="43.69085" lon="6.8652">
        <ele>742.7558594</ele>
        <time>2014-04-07T08:12:20Z</time>
      </trkpt>
      <trkpt lat="43.69066" lon="6.86579">
        <ele>744.1977539</ele>
        <time>2014-04-07T08:12:32Z</time>
      </trkpt>
      <trkpt lat="43.69047" lon="6.8664">
        <ele>746.6010742</ele>
        <time>2014-04-07T08:12:44Z</time>
      </trkpt>
      <trkpt lat="43.69028" lon="6.86701">
        <ele>747.081543</ele>
        <time>2014-04-07T08:12:55Z</time>
      </trkpt>
      <trkpt lat="43.6901" lon="6.86758">
        <ele>748.5236816</ele>
        <time>2014-04-07T08:13:05Z</time>
      </trkpt>
      <trkpt lat="43.68991" lon="6.86815">
        <ele>749.4851074</ele>
        <time>2014-04-07T08:13:15Z</time>
      </trkpt>
      <trkpt lat="43.68973" lon="6.86874">
        <ele>749.4851074</ele>
        <time>2014-04-07T08:13:25Z</time>
      </trkpt>
      <trkpt lat="43.68953" lon="6.86933">
        <ele>749.9658203</ele>
        <time>2014-04-07T08:13:34Z</time>
      </trkpt>
      <trkpt lat="43.68934" lon="6.86995">
        <ele>749.0043945</ele>
        <time>2014-04-07T08:13:43Z</time>
      </trkpt>
      <trkpt lat="43.68908" lon="6.87055">
        <ele>749.0043945</ele>
        <time>2014-04-07T08:13:52Z</time>
      </trkpt>
      <trkpt lat="43.6888" lon="6.8711">
        <ele>749.9658203</ele>
        <time>2014-04-07T08:14:01Z</time>
      </trkpt>
      <trkpt lat="43.68852" lon="6.87163">
        <ele>751.8884277</ele>
        <time>2014-04-07T08:14:11Z</time>
      </trkpt>
      <trkpt lat="43.68828" lon="6.87218">
        <ele>752.8496094</ele>
        <time>2014-04-07T08:14:21Z</time>
      </trkpt>
      <trkpt lat="43.68816" lon="6.8728">
        <ele>753.3303223</ele>
        <time>2014-04-07T08:14:31Z</time>
      </trkpt>
      <trkpt lat="43.68807" lon="6.87345">
        <ele>753.8110352</ele>
        <time>2014-04-07T08:14:41Z</time>
      </trkpt>
      <trkpt lat="43.68784" lon="6.87406">
        <ele>755.2529297</ele>
        <time>2014-04-07T08:14:51Z</time>
      </trkpt>
      <trkpt lat="43.68758" lon="6.87463">
        <ele>755.7336426</ele>
        <time>2014-04-07T08:15:01Z</time>
      </trkpt>
      <trkpt lat="43.68736" lon="6.87521">
        <ele>756.6948242</ele>
        <time>2014-04-07T08:15:11Z</time>
      </trkpt>
      <trkpt lat="43.68718" lon="6.87581">
        <ele>757.65625</ele>
        <time>2014-04-07T08:15:21Z</time>
      </trkpt>
      <trkpt lat="43.68701" lon="6.87642">
        <ele>758.6174316</ele>
        <time>2014-04-07T08:15:31Z</time>
      </trkpt>
      <trkpt lat="43.68682" lon="6.87703">
        <ele>759.5788574</ele>
        <time>2014-04-07T08:15:41Z</time>
      </trkpt>
      <trkpt lat="43.6866" lon="6.87763">
        <ele>761.5014648</ele>
        <time>2014-04-07T08:15:52Z</time>
      </trkpt>
      <trkpt lat="43.68638" lon="6.87818">
        <ele>763.904541</ele>
        <time>2014-04-07T08:16:03Z</time>
      </trkpt>
      <trkpt lat="43.68617" lon="6.87874">
        <ele>766.3081055</ele>
        <time>2014-04-07T08:16:14Z</time>
      </trkpt>
      <trkpt lat="43.68593" lon="6.87934">
        <ele>769.1921387</ele>
        <time>2014-04-07T08:16:26Z</time>
      </trkpt>
      <trkpt lat="43.68571" lon="6.87992">
        <ele>771.1147461</ele>
        <time>2014-04-07T08:16:38Z</time>
      </trkpt>
      <trkpt lat="43.6855" lon="6.88052">
        <ele>773.0373535</ele>
        <time>2014-04-07T08:16:50Z</time>
      </trkpt>
      <trkpt lat="43.68529" lon="6.88113">
        <ele>774.479248</ele>
        <time>2014-04-07T08:17:02Z</time>
      </trkpt>
      <trkpt lat="43.68514" lon="6.88174">
        <ele>775.4404297</ele>
        <time>2014-04-07T08:17:13Z</time>
      </trkpt>
      <trkpt lat="43.68504" lon="6.88235">
        <ele>776.8825684</ele>
        <time>2014-04-07T08:17:26Z</time>
      </trkpt>
      <trkpt lat="43.68463" lon="6.88266">
        <ele>774.479248</ele>
        <time>2014-04-07T08:19:19Z</time>
      </trkpt>
      <trkpt lat="43.68418" lon="6.88283">
        <ele>774.9599609</ele>
        <time>2014-04-07T08:19:29Z</time>
      </trkpt>
      <trkpt lat="43.68405" lon="6.88283">
        <ele>772.5566406</ele>
        <time>2014-04-07T08:19:49Z</time>
      </trkpt>
      <trkpt lat="43.68369" lon="6.88247">
        <ele>775.4404297</ele>
        <time>2014-04-07T08:20:01Z</time>
      </trkpt>
      <trkpt lat="43.68334" lon="6.88238">
        <ele>775.4404297</ele>
        <time>2014-04-07T08:21:26Z</time>
      </trkpt>
      <trkpt lat="43.68375" lon="6.8825">
        <ele>775.4404297</ele>
        <time>2014-04-07T08:21:47Z</time>
      </trkpt>
      <trkpt lat="43.68413" lon="6.88287">
        <ele>772.5566406</ele>
        <time>2014-04-07T08:21:58Z</time>
      </trkpt>
      <trkpt lat="43.68459" lon="6.88274">
        <ele>774.9599609</ele>
        <time>2014-04-07T08:22:10Z</time>
      </trkpt>
      <trkpt lat="43.68495" lon="6.88293">
        <ele>775.9211426</ele>
        <time>2014-04-07T08:22:23Z</time>
      </trkpt>
      <trkpt lat="43.68476" lon="6.88354">
        <ele>773.5180664</ele>
        <time>2014-04-07T08:22:35Z</time>
      </trkpt>
      <trkpt lat="43.68476" lon="6.88419">
        <ele>770.6340332</ele>
        <time>2014-04-07T08:22:49Z</time>
      </trkpt>
      <trkpt lat="43.68453" lon="6.8848">
        <ele>766.3081055</ele>
        <time>2014-04-07T08:22:58Z</time>
      </trkpt>
      <trkpt lat="43.68422" lon="6.88535">
        <ele>762.9433594</ele>
        <time>2014-04-07T08:23:05Z</time>
      </trkpt>
      <trkpt lat="43.68392" lon="6.88586">
        <ele>760.0593262</ele>
        <time>2014-04-07T08:23:11Z</time>
      </trkpt>
      <trkpt lat="43.68362" lon="6.88643">
        <ele>758.1369629</ele>
        <time>2014-04-07T08:23:18Z</time>
      </trkpt>
      <trkpt lat="43.68342" lon="6.88708">
        <ele>754.291748</ele>
        <time>2014-04-07T08:23:25Z</time>
      </trkpt>
      <trkpt lat="43.68332" lon="6.88777">
        <ele>750.4465332</ele>
        <time>2014-04-07T08:23:31Z</time>
      </trkpt>
      <trkpt lat="43.68302" lon="6.88818">
        <ele>746.6010742</ele>
        <time>2014-04-07T08:23:36Z</time>
      </trkpt>
      <trkpt lat="43.6826" lon="6.88853">
        <ele>738.4299316</ele>
        <time>2014-04-07T08:23:41Z</time>
      </trkpt>
      <trkpt lat="43.68232" lon="6.88903">
        <ele>734.5847168</ele>
        <time>2014-04-07T08:23:45Z</time>
      </trkpt>
      <trkpt lat="43.68203" lon="6.88955">
        <ele>730.7392578</ele>
        <time>2014-04-07T08:23:49Z</time>
      </trkpt>
      <trkpt lat="43.68175" lon="6.89005">
        <ele>728.8166504</ele>
        <time>2014-04-07T08:23:53Z</time>
      </trkpt>
      <trkpt lat="43.68135" lon="6.89056">
        <ele>723.529541</ele>
        <time>2014-04-07T08:23:58Z</time>
      </trkpt>
      <trkpt lat="43.68092" lon="6.89105">
        <ele>719.6843262</ele>
        <time>2014-04-07T08:24:03Z</time>
      </trkpt>
      <trkpt lat="43.68066" lon="6.89116">
        <ele>720.6455078</ele>
        <time>2014-04-07T08:24:10Z</time>
      </trkpt>
      <trkpt lat="43.68083" lon="6.89057">
        <ele>715.8388672</ele>
        <time>2014-04-07T08:24:18Z</time>
      </trkpt>
      <trkpt lat="43.68039" lon="6.89087">
        <ele>707.1870117</ele>
        <time>2014-04-07T08:24:25Z</time>
      </trkpt>
      <trkpt lat="43.67998" lon="6.89128">
        <ele>700.4580078</ele>
        <time>2014-04-07T08:24:30Z</time>
      </trkpt>
      <trkpt lat="43.67978" lon="6.8919">
        <ele>695.1704102</ele>
        <time>2014-04-07T08:24:35Z</time>
      </trkpt>
      <trkpt lat="43.67966" lon="6.89251">
        <ele>693.7285156</ele>
        <time>2014-04-07T08:24:40Z</time>
      </trkpt>
      <trkpt lat="43.67931" lon="6.8929">
        <ele>695.651123</ele>
        <time>2014-04-07T08:24:46Z</time>
      </trkpt>
      <trkpt lat="43.6788" lon="6.89302">
        <ele>689.8833008</ele>
        <time>2014-04-07T08:24:52Z</time>
      </trkpt>
      <trkpt lat="43.67828" lon="6.89308">
        <ele>678.3474121</ele>
        <time>2014-04-07T08:24:57Z</time>
      </trkpt>
      <trkpt lat="43.67779" lon="6.89316">
        <ele>674.5021973</ele>
        <time>2014-04-07T08:25:02Z</time>
      </trkpt>
      <trkpt lat="43.67753" lon="6.89292">
        <ele>667.2922363</ele>
        <time>2014-04-07T08:25:11Z</time>
      </trkpt>
      <trkpt lat="43.6772" lon="6.89349">
        <ele>657.6791992</ele>
        <time>2014-04-07T08:25:17Z</time>
      </trkpt>
      <trkpt lat="43.67697" lon="6.89416">
        <ele>654.3146973</ele>
        <time>2014-04-07T08:25:22Z</time>
      </trkpt>
      <trkpt lat="43.67666" lon="6.89474">
        <ele>650.949707</ele>
        <time>2014-04-07T08:25:27Z</time>
      </trkpt>
      <trkpt lat="43.67628" lon="6.89528">
        <ele>644.7011719</ele>
        <time>2014-04-07T08:25:32Z</time>
      </trkpt>
      <trkpt lat="43.67599" lon="6.8959">
        <ele>638.4528809</ele>
        <time>2014-04-07T08:25:37Z</time>
      </trkpt>
      <trkpt lat="43.67576" lon="6.89642">
        <ele>636.0495605</ele>
        <time>2014-04-07T08:25:42Z</time>
      </trkpt>
      <trkpt lat="43.67532" lon="6.89671">
        <ele>629.3200684</ele>
        <time>2014-04-07T08:25:47Z</time>
      </trkpt>
      <trkpt lat="43.67489" lon="6.89696">
        <ele>624.032959</ele>
        <time>2014-04-07T08:25:51Z</time>
      </trkpt>
      <trkpt lat="43.67442" lon="6.89711">
        <ele>621.6296387</ele>
        <time>2014-04-07T08:25:56Z</time>
      </trkpt>
      <trkpt lat="43.67393" lon="6.89711">
        <ele>618.2648926</ele>
        <time>2014-04-07T08:26:01Z</time>
      </trkpt>
      <trkpt lat="43.67347" lon="6.89701">
        <ele>615.8618164</ele>
        <time>2014-04-07T08:26:06Z</time>
      </trkpt>
      <trkpt lat="43.67311" lon="6.89738">
        <ele>611.5358887</ele>
        <time>2014-04-07T08:26:12Z</time>
      </trkpt>
      <trkpt lat="43.67312" lon="6.89795">
        <ele>609.6132813</ele>
        <time>2014-04-07T08:26:19Z</time>
      </trkpt>
      <trkpt lat="43.67362" lon="6.89816">
        <ele>605.7680664</ele>
        <time>2014-04-07T08:26:27Z</time>
      </trkpt>
      <trkpt lat="43.67416" lon="6.8983">
        <ele>599.0385742</ele>
        <time>2014-04-07T08:26:33Z</time>
      </trkpt>
      <trkpt lat="43.6745" lon="6.89863">
        <ele>598.0773926</ele>
        <time>2014-04-07T08:26:40Z</time>
      </trkpt>
      <trkpt lat="43.67417" lon="6.89905">
        <ele>595.1933594</ele>
        <time>2014-04-07T08:26:49Z</time>
      </trkpt>
      <trkpt lat="43.67374" lon="6.89927">
        <ele>594.7126465</ele>
        <time>2014-04-07T08:26:57Z</time>
      </trkpt>
      <trkpt lat="43.67329" lon="6.89954">
        <ele>592.3095703</ele>
        <time>2014-04-07T08:27:05Z</time>
      </trkpt>
      <trkpt lat="43.67284" lon="6.89961">
        <ele>592.3095703</ele>
        <time>2014-04-07T08:27:12Z</time>
      </trkpt>
      <trkpt lat="43.67237" lon="6.89974">
        <ele>593.7514648</ele>
        <time>2014-04-07T08:27:20Z</time>
      </trkpt>
      <trkpt lat="43.67192" lon="6.8999">
        <ele>594.7126465</ele>
        <time>2014-04-07T08:27:30Z</time>
      </trkpt>
      <trkpt lat="43.6715" lon="6.90023">
        <ele>592.7902832</ele>
        <time>2014-04-07T08:27:39Z</time>
      </trkpt>
      <trkpt lat="43.67115" lon="6.90064">
        <ele>589.4255371</ele>
        <time>2014-04-07T08:27:46Z</time>
      </trkpt>
      <trkpt lat="43.67075" lon="6.90105">
        <ele>589.90625</ele>
        <time>2014-04-07T08:27:54Z</time>
      </trkpt>
      <trkpt lat="43.67037" lon="6.90147">
        <ele>585.0996094</ele>
        <time>2014-04-07T08:28:01Z</time>
      </trkpt>
      <trkpt lat="43.67005" lon="6.90201">
        <ele>580.7736816</ele>
        <time>2014-04-07T08:28:07Z</time>
      </trkpt>
      <trkpt lat="43.66977" lon="6.90253">
        <ele>576.4477539</ele>
        <time>2014-04-07T08:28:12Z</time>
      </trkpt>
      <trkpt lat="43.66933" lon="6.90292">
        <ele>571.1604004</ele>
        <time>2014-04-07T08:28:17Z</time>
      </trkpt>
      <trkpt lat="43.66904" lon="6.90351">
        <ele>565.3925781</ele>
        <time>2014-04-07T08:28:22Z</time>
      </trkpt>
      <trkpt lat="43.66881" lon="6.90421">
        <ele>559.6247559</ele>
        <time>2014-04-07T08:28:27Z</time>
      </trkpt>
      <trkpt lat="43.66891" lon="6.90495">
        <ele>555.298584</ele>
        <time>2014-04-07T08:28:32Z</time>
      </trkpt>
      <trkpt lat="43.66883" lon="6.90565">
        <ele>553.3759766</ele>
        <time>2014-04-07T08:28:37Z</time>
      </trkpt>
      <trkpt lat="43.66881" lon="6.90629">
        <ele>552.4145508</ele>
        <time>2014-04-07T08:28:44Z</time>
      </trkpt>
      <trkpt lat="43.66887" lon="6.90693">
        <ele>546.1662598</ele>
        <time>2014-04-07T08:28:51Z</time>
      </trkpt>
      <trkpt lat="43.66893" lon="6.90758">
        <ele>541.3594971</ele>
        <time>2014-04-07T08:28:56Z</time>
      </trkpt>
      <trkpt lat="43.6689" lon="6.90827">
        <ele>538.9562988</ele>
        <time>2014-04-07T08:29:01Z</time>
      </trkpt>
      <trkpt lat="43.6688" lon="6.90896">
        <ele>537.0336914</ele>
        <time>2014-04-07T08:29:06Z</time>
      </trkpt>
      <trkpt lat="43.66872" lon="6.90962">
        <ele>537.0336914</ele>
        <time>2014-04-07T08:29:11Z</time>
      </trkpt>
      <trkpt lat="43.66833" lon="6.90949">
        <ele>537.5142822</ele>
        <time>2014-04-07T08:29:17Z</time>
      </trkpt>
      <trkpt lat="43.66795" lon="6.909">
        <ele>538.475708</ele>
        <time>2014-04-07T08:29:24Z</time>
      </trkpt>
      <trkpt lat="43.66753" lon="6.90864">
        <ele>541.3594971</ele>
        <time>2014-04-07T08:29:33Z</time>
      </trkpt>
      <trkpt lat="43.66704" lon="6.90873">
        <ele>540.8789063</ele>
        <time>2014-04-07T08:29:43Z</time>
      </trkpt>
      <trkpt lat="43.66669" lon="6.90919">
        <ele>540.8789063</ele>
        <time>2014-04-07T08:29:52Z</time>
      </trkpt>
      <trkpt lat="43.66641" lon="6.90977">
        <ele>539.4368896</ele>
        <time>2014-04-07T08:30:01Z</time>
      </trkpt>
      <trkpt lat="43.66615" lon="6.91033">
        <ele>537.5142822</ele>
        <time>2014-04-07T08:30:08Z</time>
      </trkpt>
      <trkpt lat="43.66586" lon="6.91088">
        <ele>536.0723877</ele>
        <time>2014-04-07T08:30:15Z</time>
      </trkpt>
      <trkpt lat="43.66548" lon="6.91135">
        <ele>533.1883545</ele>
        <time>2014-04-07T08:30:22Z</time>
      </trkpt>
      <trkpt lat="43.66515" lon="6.91183">
        <ele>529.8237305</ele>
        <time>2014-04-07T08:30:28Z</time>
      </trkpt>
      <trkpt lat="43.66479" lon="6.91238">
        <ele>525.4978027</ele>
        <time>2014-04-07T08:30:34Z</time>
      </trkpt>
      <trkpt lat="43.66458" lon="6.91296">
        <ele>520.6912842</ele>
        <time>2014-04-07T08:30:39Z</time>
      </trkpt>
      <trkpt lat="43.6645" lon="6.91365">
        <ele>517.807251</ele>
        <time>2014-04-07T08:30:44Z</time>
      </trkpt>
      <trkpt lat="43.66455" lon="6.91435">
        <ele>514.442627</ele>
        <time>2014-04-07T08:30:49Z</time>
      </trkpt>
      <trkpt lat="43.66468" lon="6.91501">
        <ele>511.0780029</ele>
        <time>2014-04-07T08:30:54Z</time>
      </trkpt>
      <trkpt lat="43.6647" lon="6.91569">
        <ele>508.1940918</ele>
        <time>2014-04-07T08:30:59Z</time>
      </trkpt>
      <trkpt lat="43.66445" lon="6.91629">
        <ele>504.348877</ele>
        <time>2014-04-07T08:31:04Z</time>
      </trkpt>
      <trkpt lat="43.6643" lon="6.91696">
        <ele>500.9841309</ele>
        <time>2014-04-07T08:31:09Z</time>
      </trkpt>
      <trkpt lat="43.66429" lon="6.91767">
        <ele>498.1003418</ele>
        <time>2014-04-07T08:31:14Z</time>
      </trkpt>
      <trkpt lat="43.66437" lon="6.91835">
        <ele>493.774292</ele>
        <time>2014-04-07T08:31:19Z</time>
      </trkpt>
      <trkpt lat="43.66459" lon="6.91895">
        <ele>491.8516846</ele>
        <time>2014-04-07T08:31:24Z</time>
      </trkpt>
      <trkpt lat="43.66457" lon="6.91949">
        <ele>493.2935791</ele>
        <time>2014-04-07T08:31:31Z</time>
      </trkpt>
      <trkpt lat="43.66461" lon="6.92012">
        <ele>496.6583252</ele>
        <time>2014-04-07T08:31:41Z</time>
      </trkpt>
      <trkpt lat="43.66469" lon="6.92075">
        <ele>500.0229492</ele>
        <time>2014-04-07T08:31:53Z</time>
      </trkpt>
      <trkpt lat="43.66499" lon="6.92119">
        <ele>502.9067383</ele>
        <time>2014-04-07T08:32:06Z</time>
      </trkpt>
      <trkpt lat="43.66541" lon="6.92144">
        <ele>506.2714844</ele>
        <time>2014-04-07T08:32:20Z</time>
      </trkpt>
      <trkpt lat="43.66579" lon="6.9218">
        <ele>508.6746826</ele>
        <time>2014-04-07T08:32:34Z</time>
      </trkpt>
      <trkpt lat="43.66614" lon="6.92225">
        <ele>511.0780029</ele>
        <time>2014-04-07T08:32:49Z</time>
      </trkpt>
      <trkpt lat="43.66649" lon="6.92268">
        <ele>513.4814453</ele>
        <time>2014-04-07T08:33:03Z</time>
      </trkpt>
      <trkpt lat="43.66678" lon="6.92316">
        <ele>515.8846436</ele>
        <time>2014-04-07T08:33:17Z</time>
      </trkpt>
      <trkpt lat="43.66708" lon="6.92365">
        <ele>518.2878418</ele>
        <time>2014-04-07T08:33:31Z</time>
      </trkpt>
      <trkpt lat="43.66737" lon="6.92415">
        <ele>521.1719971</ele>
        <time>2014-04-07T08:33:47Z</time>
      </trkpt>
      <trkpt lat="43.66766" lon="6.92464">
        <ele>524.0557861</ele>
        <time>2014-04-07T08:34:03Z</time>
      </trkpt>
      <trkpt lat="43.66796" lon="6.92513">
        <ele>527.4204102</ele>
        <time>2014-04-07T08:34:19Z</time>
      </trkpt>
      <trkpt lat="43.66827" lon="6.92561">
        <ele>529.8237305</ele>
        <time>2014-04-07T08:34:37Z</time>
      </trkpt>
      <trkpt lat="43.66851" lon="6.92614">
        <ele>525.4978027</ele>
        <time>2014-04-07T08:34:47Z</time>
      </trkpt>
      <trkpt lat="43.66862" lon="6.92684">
        <ele>520.6912842</ele>
        <time>2014-04-07T08:34:54Z</time>
      </trkpt>
      <trkpt lat="43.66849" lon="6.92746">
        <ele>519.7298584</ele>
        <time>2014-04-07T08:35:00Z</time>
      </trkpt>
      <trkpt lat="43.66817" lon="6.928">
        <ele>518.7685547</ele>
        <time>2014-04-07T08:35:07Z</time>
      </trkpt>
      <trkpt lat="43.66785" lon="6.92848">
        <ele>517.807251</ele>
        <time>2014-04-07T08:35:14Z</time>
      </trkpt>
      <trkpt lat="43.66756" lon="6.92906">
        <ele>514.442627</ele>
        <time>2014-04-07T08:35:21Z</time>
      </trkpt>
      <trkpt lat="43.66755" lon="6.92979">
        <ele>508.1940918</ele>
        <time>2014-04-07T08:35:27Z</time>
      </trkpt>
      <trkpt lat="43.66761" lon="6.93046">
        <ele>503.8681641</ele>
        <time>2014-04-07T08:35:32Z</time>
      </trkpt>
      <trkpt lat="43.6677" lon="6.93119">
        <ele>498.5809326</ele>
        <time>2014-04-07T08:35:37Z</time>
      </trkpt>
      <trkpt lat="43.66753" lon="6.93176">
        <ele>499.0615234</ele>
        <time>2014-04-07T08:35:42Z</time>
      </trkpt>
      <trkpt lat="43.66749" lon="6.93124">
        <ele>494.7355957</ele>
        <time>2014-04-07T08:35:55Z</time>
      </trkpt>
      <trkpt lat="43.66729" lon="6.93066">
        <ele>488.4871826</ele>
        <time>2014-04-07T08:36:04Z</time>
      </trkpt>
      <trkpt lat="43.66704" lon="6.93094">
        <ele>484.6418457</ele>
        <time>2014-04-07T08:36:17Z</time>
      </trkpt>
      <trkpt lat="43.66663" lon="6.93084">
        <ele>477.9124756</ele>
        <time>2014-04-07T08:36:27Z</time>
      </trkpt>
      <trkpt lat="43.6665" lon="6.93081">
        <ele>472.6253662</ele>
        <time>2014-04-07T08:36:38Z</time>
      </trkpt>
      <trkpt lat="43.66672" lon="6.93031">
        <ele>467.8187256</ele>
        <time>2014-04-07T08:36:46Z</time>
      </trkpt>
      <trkpt lat="43.66636" lon="6.93048">
        <ele>462.5313721</ele>
        <time>2014-04-07T08:36:59Z</time>
      </trkpt>
      <trkpt lat="43.66622" lon="6.93032">
        <ele>456.7635498</ele>
        <time>2014-04-07T08:37:11Z</time>
      </trkpt>
      <trkpt lat="43.66626" lon="6.9309">
        <ele>453.8796387</ele>
        <time>2014-04-07T08:37:28Z</time>
      </trkpt>
      <trkpt lat="43.66639" lon="6.93154">
        <ele>452.9182129</ele>
        <time>2014-04-07T08:37:37Z</time>
      </trkpt>
      <trkpt lat="43.66639" lon="6.93218">
        <ele>450.5150146</ele>
        <time>2014-04-07T08:37:45Z</time>
      </trkpt>
      <trkpt lat="43.66623" lon="6.93185">
        <ele>443.7857666</ele>
        <time>2014-04-07T08:38:00Z</time>
      </trkpt>
      <trkpt lat="43.66612" lon="6.93125">
        <ele>440.4212646</ele>
        <time>2014-04-07T08:38:08Z</time>
      </trkpt>
      <trkpt lat="43.66581" lon="6.93069">
        <ele>437.0565186</ele>
        <time>2014-04-07T08:38:15Z</time>
      </trkpt>
      <trkpt lat="43.6655" lon="6.93043">
        <ele>434.1726074</ele>
        <time>2014-04-07T08:38:24Z</time>
      </trkpt>
      <trkpt lat="43.66576" lon="6.93105">
        <ele>428.885376</ele>
        <time>2014-04-07T08:38:32Z</time>
      </trkpt>
      <trkpt lat="43.66558" lon="6.93095">
        <ele>426.9627686</ele>
        <time>2014-04-07T08:38:42Z</time>
      </trkpt>
      <trkpt lat="43.66533" lon="6.93039">
        <ele>425.520752</ele>
        <time>2014-04-07T08:38:50Z</time>
      </trkpt>
      <trkpt lat="43.66537" lon="6.92971">
        <ele>424.5594482</ele>
        <time>2014-04-07T08:38:58Z</time>
      </trkpt>
      <trkpt lat="43.66574" lon="6.92936">
        <ele>424.0787354</ele>
        <time>2014-04-07T08:39:05Z</time>
      </trkpt>
      <trkpt lat="43.66592" lon="6.92871">
        <ele>423.5980225</ele>
        <time>2014-04-07T08:39:13Z</time>
      </trkpt>
      <trkpt lat="43.66597" lon="6.92808">
        <ele>423.1174316</ele>
        <time>2014-04-07T08:39:20Z</time>
      </trkpt>
      <trkpt lat="43.66612" lon="6.9275">
        <ele>423.1174316</ele>
        <time>2014-04-07T08:39:27Z</time>
      </trkpt>
      <trkpt lat="43.66627" lon="6.9269">
        <ele>421.675415</ele>
        <time>2014-04-07T08:39:34Z</time>
      </trkpt>
      <trkpt lat="43.66623" lon="6.92626">
        <ele>419.2722168</ele>
        <time>2014-04-07T08:39:41Z</time>
      </trkpt>
      <trkpt lat="43.66601" lon="6.92562">
        <ele>415.4268799</ele>
        <time>2014-04-07T08:39:48Z</time>
      </trkpt>
      <trkpt lat="43.66576" lon="6.92505">
        <ele>413.5042725</ele>
        <time>2014-04-07T08:39:54Z</time>
      </trkpt>
      <trkpt lat="43.66531" lon="6.92469">
        <ele>409.6590576</ele>
        <time>2014-04-07T08:40:00Z</time>
      </trkpt>
      <trkpt lat="43.66493" lon="6.92431">
        <ele>405.8137207</ele>
        <time>2014-04-07T08:40:05Z</time>
      </trkpt>
      <trkpt lat="43.66457" lon="6.92382">
        <ele>401.0070801</ele>
        <time>2014-04-07T08:40:10Z</time>
      </trkpt>
      <trkpt lat="43.66422" lon="6.92342">
        <ele>401.487793</ele>
        <time>2014-04-07T08:40:15Z</time>
      </trkpt>
      <trkpt lat="43.66382" lon="6.923">
        <ele>400.5264893</ele>
        <time>2014-04-07T08:40:21Z</time>
      </trkpt>
      <trkpt lat="43.66339" lon="6.92263">
        <ele>395.2391357</ele>
        <time>2014-04-07T08:40:28Z</time>
      </trkpt>
      <trkpt lat="43.66292" lon="6.92245">
        <ele>391.8745117</ele>
        <time>2014-04-07T08:40:34Z</time>
      </trkpt>
      <trkpt lat="43.66264" lon="6.92213">
        <ele>386.1066895</ele>
        <time>2014-04-07T08:40:47Z</time>
      </trkpt>
      <trkpt lat="43.66238" lon="6.92211">
        <ele>375.5321045</ele>
        <time>2014-04-07T08:41:08Z</time>
      </trkpt>
      <trkpt lat="43.66227" lon="6.92221">
        <ele>369.2836914</ele>
        <time>2014-04-07T08:41:34Z</time>
      </trkpt>
      <trkpt lat="43.66182" lon="6.92238">
        <ele>355.3444824</ele>
        <time>2014-04-07T08:41:51Z</time>
      </trkpt>
      <trkpt lat="43.66134" lon="6.92232">
        <ele>358.2283936</ele>
        <time>2014-04-07T08:42:00Z</time>
      </trkpt>
      <trkpt lat="43.66091" lon="6.92211">
        <ele>354.8637695</ele>
        <time>2014-04-07T08:42:11Z</time>
      </trkpt>
      <trkpt lat="43.66047" lon="6.92227">
        <ele>348.1346436</ele>
        <time>2014-04-07T08:42:18Z</time>
      </trkpt>
      <trkpt lat="43.66004" lon="6.92246">
        <ele>346.692627</ele>
        <time>2014-04-07T08:42:26Z</time>
      </trkpt>
      <trkpt lat="43.65975" lon="6.92247">
        <ele>345.7313232</ele>
        <time>2014-04-07T08:42:50Z</time>
      </trkpt>
      <trkpt lat="43.65998" lon="6.92283">
        <ele>340.4440918</ele>
        <time>2014-04-07T08:43:12Z</time>
      </trkpt>
      <trkpt lat="43.65952" lon="6.92298">
        <ele>338.0407715</ele>
        <time>2014-04-07T08:43:26Z</time>
      </trkpt>
      <trkpt lat="43.65904" lon="6.923">
        <ele>338.0407715</ele>
        <time>2014-04-07T08:43:38Z</time>
      </trkpt>
      <trkpt lat="43.65877" lon="6.92362">
        <ele>325.5435791</ele>
        <time>2014-04-07T08:44:00Z</time>
      </trkpt>
      <trkpt lat="43.65911" lon="6.92428">
        <ele>323.1403809</ele>
        <time>2014-04-07T08:44:19Z</time>
      </trkpt>
      <trkpt lat="43.65896" lon="6.925">
        <ele>317.3724365</ele>
        <time>2014-04-07T08:44:40Z</time>
      </trkpt>
      <trkpt lat="43.65921" lon="6.92564">
        <ele>315.9304199</ele>
        <time>2014-04-07T08:44:53Z</time>
      </trkpt>
      <trkpt lat="43.65879" lon="6.92585">
        <ele>310.1624756</ele>
        <time>2014-04-07T08:45:01Z</time>
      </trkpt>
      <trkpt lat="43.6583" lon="6.92579">
        <ele>309.2011719</ele>
        <time>2014-04-07T08:45:15Z</time>
      </trkpt>
      <trkpt lat="43.6579" lon="6.92566">
        <ele>309.2011719</ele>
        <time>2014-04-07T08:49:01Z</time>
      </trkpt>
      <trkpt lat="43.65749" lon="6.9254">
        <ele>308.720459</ele>
        <time>2014-04-07T08:49:12Z</time>
      </trkpt>
      <trkpt lat="43.65728" lon="6.92485">
        <ele>306.7978516</ele>
        <time>2014-04-07T08:49:21Z</time>
      </trkpt>
      <trkpt lat="43.65742" lon="6.92421">
        <ele>304.8752441</ele>
        <time>2014-04-07T08:49:28Z</time>
      </trkpt>
      <trkpt lat="43.6575" lon="6.92355">
        <ele>308.2398682</ele>
        <time>2014-04-07T08:49:38Z</time>
      </trkpt>
      <trkpt lat="43.6572" lon="6.92308">
        <ele>311.6044922</ele>
        <time>2014-04-07T08:49:52Z</time>
      </trkpt>
      <trkpt lat="43.65752" lon="6.92285">
        <ele>312.5657959</ele>
        <time>2014-04-07T08:51:33Z</time>
      </trkpt>
      <trkpt lat="43.65731" lon="6.92237">
        <ele>315.4498291</ele>
        <time>2014-04-07T08:51:53Z</time>
      </trkpt>
      <trkpt lat="43.65674" lon="6.92184">
        <ele>318.3336182</ele>
        <time>2014-04-07T08:52:08Z</time>
      </trkpt>
      <trkpt lat="43.65676" lon="6.9212">
        <ele>323.1403809</ele>
        <time>2014-04-07T08:52:25Z</time>
      </trkpt>
      <trkpt lat="43.65638" lon="6.92125">
        <ele>314.4884033</ele>
        <time>2014-04-07T08:52:55Z</time>
      </trkpt>
      <trkpt lat="43.65603" lon="6.92076">
        <ele>312.0852051</ele>
        <time>2014-04-07T08:53:04Z</time>
      </trkpt>
      <trkpt lat="43.65561" lon="6.92076">
        <ele>306.7978516</ele>
        <time>2014-04-07T08:53:18Z</time>
      </trkpt>
      <trkpt lat="43.65509" lon="6.92069">
        <ele>304.8752441</ele>
        <time>2014-04-07T08:53:29Z</time>
      </trkpt>
      <trkpt lat="43.65468" lon="6.92043">
        <ele>302.4719238</ele>
        <time>2014-04-07T08:53:37Z</time>
      </trkpt>
      <trkpt lat="43.65434" lon="6.92002">
        <ele>302.9525146</ele>
        <time>2014-04-07T08:53:45Z</time>
      </trkpt>
      <trkpt lat="43.65405" lon="6.91985">
        <ele>304.8752441</ele>
        <time>2014-04-07T08:54:34Z</time>
      </trkpt>
    </trkseg>
  </trk>
</gpx>